Darstellungsparameter: Aktuell verwendete Einstellungen:
Skalierung der Graphiken ... ?
xyx+y,   Skalierungsfaktor:      Skalierung: Modus: x, Faktor: 1
Darstellungszeitraum ... ?
Vom - - bis: - -   Zeitraum: 16.05.2019 - 15.08.2019
Min/Max/Avg-Anzeige ... ?
Zeige MMA aktuell
Zeige MMA Monat
Zeige MMA alles
Zeige --A aktuell
Zeige --A Monat
Zeige --A alles
Keine MMA-Anzeige
MMA:
Average (ber die Originaldaten)
MMA-Basis: 16.05.2019 - 15.08.2019
Quicknavigation für Darstellung... ?
Tage:      1T, 2T, 3T, 5T -1T -2T -3T -5T +1T +2T +3T +5T
Wochen: 1W, 2W, 3W -1W -2W -3W +1W +2W +3W
Monate: 1M, 3M, 6M -1M -3M -6M +1M +3M +6M
Jahre:    1J, 3J, 5J, 10J -1J -3J -5J -10J +1J +3J +5J +10J
Nutze für die Darstellung ... ?
Originaldaten oder ...
Mittelwerte Minima Maxima auf...
Stundenbasis Tagesbasis Wochenbasis
Monatsbasis Jahresbasis      Datenbasis: Mittelwerte auf Stundenbasis
Darstellen als:
Statistik (Auto) Statistik J:M      Darstellung:
Zur Graphik,    zurück zur Übersicht aller Sensoren.
 
Tabellarische Datenbersicht: ?
 
Sensor: Nr:Datum:Temp:Feuchte:Taupunkt:
Aussen-T/F 1 16-05-2019 00:00:00 7.39167 C 66.5833 % 1.59 C
2 16-05-2019 01:00:00 6.64167 C 73.4167 % 2.24 C
3 16-05-2019 02:00:00 5.725 C 78.7500 % 2.33 C
4 16-05-2019 03:00:00 5.58333 C 82.1667 % 2.79 C
5 16-05-2019 04:00:00 5.71667 C 83.5833 % 3.16 C
6 16-05-2019 05:00:00 5.83333 C 84.0833 % 3.36 C
7 16-05-2019 06:00:00 5.95 C 85.4167 % 3.7 C
8 16-05-2019 07:00:00 6.64167 C 85.1667 % 4.33 C
9 16-05-2019 08:00:00 7.98333 C 82.8333 % 5.25 C
10 16-05-2019 09:00:00 9.95 C 72.7500 % 5.29 C
11 16-05-2019 10:00:00 11.65833 C 62.9167 % 4.84 C
12 16-05-2019 11:00:00 12.20833 C 58.5833 % 4.34 C
13 16-05-2019 12:00:00 13.13333 C 58.8333 % 5.27 C
14 16-05-2019 13:00:00 14.68333 C 56.6667 % 6.18 C
15 16-05-2019 14:00:00 15.4 C 55.8333 % 6.63 C
16 16-05-2019 15:00:00 17.38333 C 52.0833 % 7.46 C
17 16-05-2019 16:00:00 18.23333 C 49.6667 % 7.55 C
18 16-05-2019 17:00:00 16.90833 C 54.0000 % 7.55 C
19 16-05-2019 18:00:00 15.44167 C 61.5833 % 8.1 C
20 16-05-2019 19:00:00 14.075 C 68.0833 % 8.28 C
21 16-05-2019 20:00:00 12.56667 C 73.1667 % 7.9 C
22 16-05-2019 21:00:00 11.175 C 76.0000 % 7.11 C
23 16-05-2019 22:00:00 10.23333 C 81.7500 % 7.26 C
24 16-05-2019 23:00:00 9.60833 C 86.3333 % 7.44 C
25 17-05-2019 00:00:00 9.08333 C 90.9167 % 7.68 C
Sensor: Nr:Datum:Temp:Feuchte:Taupunkt:
Aussen-T/F 26 17-05-2019 01:00:00 8.79167 C 92.5000 % 7.64 C
27 17-05-2019 02:00:00 8.7 C 93.6667 % 7.74 C
28 17-05-2019 03:00:00 8.63333 C 94.1667 % 7.75 C
29 17-05-2019 04:00:00 8.475 C 94.9167 % 7.71 C
30 17-05-2019 05:00:00 8.36667 C 95.0000 % 7.61 C
31 17-05-2019 06:00:00 8.45 C 95.5833 % 7.79 C
32 17-05-2019 07:00:00 8.71667 C 96.0000 % 8.12 C
33 17-05-2019 08:00:00 8.96667 C 96.0000 % 8.36 C
34 17-05-2019 09:00:00 9.29167 C 96.0000 % 8.69 C
35 17-05-2019 10:00:00 9.625 C 96.0000 % 9.02 C
36 17-05-2019 11:00:00 10.2 C 95.0833 % 9.45 C
37 17-05-2019 12:00:00 11.175 C 93.7500 % 10.21 C
38 17-05-2019 13:00:00 12.825 C 89.1667 % 11.09 C
39 17-05-2019 14:00:00 14.44167 C 84.1667 % 11.8 C
40 17-05-2019 15:00:00 15.54167 C 79.8333 % 12.08 C
41 17-05-2019 16:00:00 16.35 C 75.2500 % 11.96 C
42 17-05-2019 17:00:00 17.35 C 70.8333 % 12.01 C
43 17-05-2019 18:00:00 16.8 C 78.3333 % 13.01 C
44 17-05-2019 19:00:00 16.625 C 80.1667 % 13.19 C
45 17-05-2019 20:00:00 13.975 C 85.3333 % 11.55 C
46 17-05-2019 21:00:00 12.00833 C 89.6667 % 10.36 C
47 17-05-2019 22:00:00 11.96667 C 92.0000 % 10.71 C
48 17-05-2019 23:00:00 12.05833 C 93.4167 % 11.03 C
49 18-05-2019 00:00:00 11.6 C 94.0000 % 10.67 C
50 18-05-2019 01:00:00 10.44167 C 94.4167 % 9.58 C
Sensor: Nr:Datum:Temp:Feuchte:Taupunkt:
Aussen-T/F 51 18-05-2019 02:00:00 10.58333 C 95.8333 % 9.95 C
52 18-05-2019 03:00:00 10.43333 C 95.9167 % 9.81 C
53 18-05-2019 04:00:00 9.925 C 96.0000 % 9.32 C
54 18-05-2019 05:00:00 9.31667 C 96.0000 % 8.71 C
55 18-05-2019 06:00:00 9.35833 C 96.5000 % 8.83 C
56 18-05-2019 07:00:00 10.23333 C 97.0000 % 9.78 C
57 18-05-2019 08:00:00 11.2 C 96.8333 % 10.72 C
58 18-05-2019 09:00:00 12.275 C 94.6667 % 11.44 C
59 18-05-2019 10:00:00 14.16667 C 91.3333 % 12.78 C
60 18-05-2019 11:00:00 16.9 C 77.2500 % 12.89 C
61 18-05-2019 12:00:00 18.14167 C 71.5000 % 12.91 C
62 18-05-2019 13:00:00 19.01667 C 69.0833 % 13.22 C
63 18-05-2019 14:00:00 20.34167 C 62.5000 % 12.95 C
64 18-05-2019 15:00:00 21.05833 C 58.4167 % 12.59 C
65 18-05-2019 16:00:00 22.41667 C 60.3333 % 14.36 C
66 18-05-2019 17:00:00 21.04167 C 70.5833 % 15.49 C
67 18-05-2019 18:00:00 18.54167 C 76.5833 % 14.35 C
68 18-05-2019 19:00:00 15.85 C 86.9167 % 13.68 C
69 18-05-2019 20:00:00 14.79167 C 90.4167 % 13.24 C
70 18-05-2019 21:00:00 13.71667 C 92.0000 % 12.44 C
71 18-05-2019 22:00:00 12.75 C 93.3333 % 11.7 C
72 18-05-2019 23:00:00 12.53333 C 94.6667 % 11.7 C
73 19-05-2019 00:00:00 12.79167 C 95.0000 % 12.01 C
74 19-05-2019 01:00:00 12.73333 C 95.0000 % 11.95 C
75 19-05-2019 02:00:00 12.26667 C 95.0000 % 11.49 C
Sensor: Nr:Datum:Temp:Feuchte:Taupunkt:
Aussen-T/F 76 19-05-2019 03:00:00 11.71667 C 95.5000 % 11.02 C
77 19-05-2019 04:00:00 11.625 C 96.0000 % 11.01 C
78 19-05-2019 05:00:00 11.38333 C 96.0000 % 10.77 C
79 19-05-2019 06:00:00 11.475 C 96.8333 % 10.99 C
80 19-05-2019 07:00:00 12.13333 C 97.0000 % 11.67 C
81 19-05-2019 08:00:00 12.825 C 97.0000 % 12.36 C
82 19-05-2019 09:00:00 13.73333 C 96.9167 % 13.25 C
83 19-05-2019 10:00:00 15.11667 C 94.8333 % 14.29 C
84 19-05-2019 11:00:00 16.26667 C 90.2500 % 14.67 C
85 19-05-2019 12:00:00 17.99167 C 84.2500 % 15.29 C
86 19-05-2019 13:00:00 18.78333 C 77.5000 % 14.77 C
87 19-05-2019 14:00:00 20.225 C 67.2500 % 13.96 C
88 19-05-2019 15:00:00 22.54167 C 61.3333 % 14.73 C
89 19-05-2019 16:00:00 23.4 C 58.4167 % 14.78 C
90 19-05-2019 17:00:00 19.25833 C 63.3333 % 12.13 C
91 19-05-2019 18:00:00 19.96667 C 65.1667 % 13.23 C
92 19-05-2019 19:00:00 20.475 C 63.1667 % 13.24 C
93 19-05-2019 20:00:00 18.96667 C 68.5833 % 13.06 C
94 19-05-2019 21:00:00 15.7 C 80.8333 % 12.42 C
95 19-05-2019 22:00:00 14.53333 C 86.1667 % 12.25 C
96 19-05-2019 23:00:00 14.65833 C 84.7500 % 12.12 C
97 20-05-2019 00:00:00 14.48333 C 85.6667 % 12.11 C
98 20-05-2019 01:00:00 13.40833 C 89.3333 % 11.69 C
99 20-05-2019 02:00:00 12.46667 C 91.5833 % 11.14 C
100 20-05-2019 03:00:00 12.23333 C 93.1667 % 11.16 C
Sensor: Nr:Datum:Temp:Feuchte:Taupunkt:
Aussen-T/F 101 20-05-2019 04:00:00 12.7 C 94.0000 % 11.76 C
102 20-05-2019 05:00:00 13.13333 C 93.0000 % 12.03 C
103 20-05-2019 06:00:00 13.15 C 92.0000 % 11.88 C
104 20-05-2019 07:00:00 13.16667 C 92.0000 % 11.9 C
105 20-05-2019 08:00:00 13.475 C 91.7500 % 12.16 C
106 20-05-2019 09:00:00 13.95 C 89.9167 % 12.32 C
107 20-05-2019 10:00:00 14.25833 C 89.0833 % 12.49 C
108 20-05-2019 11:00:00 14.125 C 91.9167 % 12.83 C
109 20-05-2019 12:00:00 14.08333 C 92.0833 % 12.82 C
110 20-05-2019 13:00:00 13.85833 C 92.0000 % 12.58 C
111 20-05-2019 14:00:00 14.29167 C 91.4167 % 12.91 C
112 20-05-2019 15:00:00 14.6 C 89.2500 % 12.85 C
113 20-05-2019 16:00:00 14.84167 C 87.7500 % 12.83 C
114 20-05-2019 17:00:00 14.93333 C 87.0000 % 12.79 C
115 20-05-2019 18:00:00 14.86667 C 86.0833 % 12.56 C
116 20-05-2019 19:00:00 14.65 C 86.6667 % 12.45 C
117 20-05-2019 20:00:00 14.5 C 87.2500 % 12.41 C
118 20-05-2019 21:00:00 14.19167 C 88.0000 % 12.23 C
119 20-05-2019 22:00:00 14.1 C 88.0000 % 12.14 C
120 20-05-2019 23:00:00 14.21667 C 86.5833 % 12.01 C
121 21-05-2019 00:00:00 14.23333 C 86.6667 % 12.04 C
122 21-05-2019 01:00:00 13.8 C 89.5000 % 12.1 C
123 21-05-2019 02:00:00 13.56667 C 90.6667 % 12.07 C
124 21-05-2019 03:00:00 13.275 C 91.5000 % 11.92 C
125 21-05-2019 04:00:00 13.11667 C 91.0000 % 11.68 C
Sensor: Nr:Datum:Temp:Feuchte:Taupunkt:
Aussen-T/F 126 21-05-2019 05:00:00 12.71667 C 91.5833 % 11.38 C
127 21-05-2019 06:00:00 12.21667 C 93.7500 % 11.24 C
128 21-05-2019 07:00:00 12.23333 C 94.0000 % 11.3 C
129 21-05-2019 08:00:00 12.3 C 93.5833 % 11.3 C
130 21-05-2019 09:00:00 12.3 C 93.5833 % 11.3 C
131 21-05-2019 10:00:00 12.23333 C 93.6667 % 11.24 C
132 21-05-2019 11:00:00 12.15 C 93.0833 % 11.07 C
133 21-05-2019 12:00:00 12.11667 C 93.8333 % 11.15 C
134 21-05-2019 13:00:00 12.225 C 94.0000 % 11.29 C
135 21-05-2019 14:00:00 12.15 C 93.6667 % 11.16 C
136 21-05-2019 15:00:00 12.15833 C 93.0833 % 11.07 C
137 21-05-2019 16:00:00 12.09167 C 93.9167 % 11.14 C
138 21-05-2019 17:00:00 12.18333 C 94.0833 % 11.26 C
139 21-05-2019 18:00:00 12.275 C 94.0833 % 11.35 C
140 21-05-2019 19:00:00 12.375 C 93.6667 % 11.38 C
141 21-05-2019 20:00:00 12.21667 C 94.8333 % 11.41 C
142 21-05-2019 21:00:00 12.1 C 95.0000 % 11.32 C
143 21-05-2019 22:00:00 12.04167 C 95.3333 % 11.32 C
144 21-05-2019 23:00:00 11.85833 C 96.0000 % 11.24 C
145 22-05-2019 00:00:00 11.8 C 96.0000 % 11.18 C
146 22-05-2019 01:00:00 11.75 C 96.0000 % 11.13 C
147 22-05-2019 02:00:00 11.56667 C 96.0000 % 10.95 C
148 22-05-2019 03:00:00 11.575 C 96.0000 % 10.96 C
149 22-05-2019 04:00:00 11.44167 C 95.2500 % 10.71 C
150 22-05-2019 05:00:00 11.33333 C 95.0000 % 10.56 C
Sensor: Nr:Datum:Temp:Feuchte:Taupunkt:
Aussen-T/F 151 22-05-2019 06:00:00 11.05 C 94.0000 % 10.12 C
152 22-05-2019 07:00:00 10.66667 C 93.3333 % 9.64 C
153 22-05-2019 08:00:00 10.33333 C 91.9167 % 9.08 C
154 22-05-2019 09:00:00 10.475 C 87.2500 % 8.45 C
155 22-05-2019 10:00:00 10.88333 C 83.4167 % 8.19 C
156 22-05-2019 11:00:00 11.51667 C 82.3333 % 8.61 C
157 22-05-2019 12:00:00 12.85 C 76.6667 % 8.86 C
158 22-05-2019 13:00:00 13.65833 C 73.5833 % 9.03 C
159 22-05-2019 14:00:00 15.01667 C 69.6667 % 9.52 C
160 22-05-2019 15:00:00 17.08333 C 63.7500 % 10.17 C
161 22-05-2019 16:00:00 18.625 C 59.0000 % 10.46 C
162 22-05-2019 17:00:00 18.24167 C 58.7500 % 10.04 C
163 22-05-2019 18:00:00 19.46667 C 54.0833 % 9.94 C
164 22-05-2019 19:00:00 19.025 C 56.0833 % 10.08 C
165 22-05-2019 20:00:00 17.24167 C 70.9167 % 11.92 C
166 22-05-2019 21:00:00 13.73333 C 76.5833 % 9.7 C
167 22-05-2019 22:00:00 11.64167 C 85.5833 % 9.31 C
168 22-05-2019 23:00:00 10.33333 C 89.6667 % 8.71 C
169 23-05-2019 00:00:00 9.5 C 91.6667 % 8.21 C
170 23-05-2019 01:00:00 8.975 C 92.9167 % 7.89 C
171 23-05-2019 02:00:00 8.54167 C 93.6667 % 7.58 C
172 23-05-2019 03:00:00 8.35833 C 94.8333 % 7.58 C
173 23-05-2019 04:00:00 7.93333 C 95.0000 % 7.18 C
174 23-05-2019 05:00:00 7.71667 C 95.2500 % 7.01 C
175 23-05-2019 06:00:00 7.9 C 96.0000 % 7.3 C
Sensor: Nr:Datum:Temp:Feuchte:Taupunkt:
Aussen-T/F 176 23-05-2019 07:00:00 8.675 C 96.0000 % 8.07 C
177 23-05-2019 08:00:00 9.59167 C 95.8333 % 8.96 C
178 23-05-2019 09:00:00 11.05833 C 94.0000 % 10.13 C
179 23-05-2019 10:00:00 13.75 C 87.4167 % 11.7 C
180 23-05-2019 11:00:00 17.49167 C 65.9167 % 11.06 C
181 23-05-2019 12:00:00 18.84167 C 57.8333 % 10.36 C
182 23-05-2019 13:00:00 19.83333 C 56.4167 % 10.92 C
183 23-05-2019 14:00:00 21.25833 C 48.8333 % 10.07 C
184 23-05-2019 15:00:00 22.38333 C 46.0833 % 10.23 C
185 23-05-2019 16:00:00 24.39167 C 39.2500 % 9.64 C
186 23-05-2019 17:00:00 24.78333 C 37.5833 % 9.35 C
187 23-05-2019 18:00:00 24.96667 C 37.5000 % 9.48 C
188 23-05-2019 19:00:00 22.80833 C 52.6667 % 12.64 C
189 23-05-2019 20:00:00 19.33333 C 64.8333 % 12.55 C
190 23-05-2019 21:00:00 16.40833 C 74.0833 % 11.78 C
191 23-05-2019 22:00:00 14.68333 C 82.0000 % 11.65 C
192 23-05-2019 23:00:00 13.66667 C 83.7500 % 10.97 C
193 24-05-2019 00:00:00 12.84167 C 86.3333 % 10.62 C
194 24-05-2019 01:00:00 12.36667 C 87.5833 % 10.37 C
195 24-05-2019 02:00:00 11.83333 C 89.2500 % 10.12 C
196 24-05-2019 03:00:00 11.40833 C 91.0000 % 9.99 C
197 24-05-2019 04:00:00 11.25 C 92.0000 % 10 C
198 24-05-2019 05:00:00 11.16667 C 92.0000 % 9.92 C
199 24-05-2019 06:00:00 11 C 92.9167 % 9.9 C
200 24-05-2019 07:00:00 11.71667 C 92.7500 % 10.58 C
Sensor: Nr:Datum:Temp:Feuchte:Taupunkt:
Aussen-T/F 201 24-05-2019 08:00:00 13.29167 C 88.2500 % 11.39 C
202 24-05-2019 09:00:00 15.28333 C 80.2500 % 11.9 C
203 24-05-2019 10:00:00 16.80833 C 76.3333 % 12.62 C
204 24-05-2019 11:00:00 18.925 C 68.1667 % 12.93 C
205 24-05-2019 12:00:00 20.75833 C 57.3333 % 12.02 C
206 24-05-2019 13:00:00 22.09167 C 46.8333 % 10.21 C
207 24-05-2019 14:00:00 22.98333 C 43.2500 % 9.83 C
208 24-05-2019 15:00:00 23.45 C 40.5000 % 9.27 C
209 24-05-2019 16:00:00 23.88333 C 40.6667 % 9.72 C
210 24-05-2019 17:00:00 24.26667 C 42.4167 % 10.69 C
211 24-05-2019 18:00:00 24.40833 C 41.0833 % 10.34 C
212 24-05-2019 19:00:00 21.04167 C 56.5000 % 12.07 C
213 24-05-2019 20:00:00 19.475 C 61.7500 % 11.95 C
214 24-05-2019 21:00:00 16.96667 C 71.5000 % 11.78 C
215 24-05-2019 22:00:00 15.14167 C 79.5833 % 11.64 C
216 24-05-2019 23:00:00 14.06667 C 84.0000 % 11.41 C
217 25-05-2019 00:00:00 14.75833 C 78.6667 % 11.09 C
218 25-05-2019 01:00:00 13.875 C 77.7500 % 10.06 C
219 25-05-2019 02:00:00 13.125 C 76.0000 % 8.99 C
220 25-05-2019 03:00:00 12.16667 C 76.0833 % 8.08 C
221 25-05-2019 04:00:00 10.84167 C 75.5000 % 6.69 C
222 25-05-2019 05:00:00 10.2 C 77.2500 % 6.4 C
223 25-05-2019 06:00:00 9.525 C 83.5833 % 6.89 C
224 25-05-2019 07:00:00 10.675 C 80.3333 % 7.43 C
225 25-05-2019 08:00:00 13.04167 C 72.1667 % 8.15 C
Sensor: Nr:Datum:Temp:Feuchte:Taupunkt:
Aussen-T/F 226 25-05-2019 09:00:00 14.025 C 71.6667 % 8.99 C
227 25-05-2019 10:00:00 15.3 C 68.2500 % 9.49 C
228 25-05-2019 11:00:00 16.25 C 63.5000 % 9.32 C
229 25-05-2019 12:00:00 16.95833 C 64.4167 % 10.2 C
230 25-05-2019 13:00:00 18.45 C 60.1667 % 10.59 C
231 25-05-2019 14:00:00 19.35833 C 55.0833 % 10.12 C
232 25-05-2019 15:00:00 21.01667 C 50.7500 % 10.43 C
233 25-05-2019 16:00:00 22.06667 C 46.6667 % 10.13 C
234 25-05-2019 17:00:00 21.73333 C 46.0000 % 9.61 C
235 25-05-2019 18:00:00 19.95 C 49.0000 % 8.92 C
236 25-05-2019 19:00:00 18.875 C 54.5833 % 9.53 C
237 25-05-2019 20:00:00 17.98333 C 64.1667 % 11.12 C
238 25-05-2019 21:00:00 16.03333 C 71.4167 % 10.87 C
239 25-05-2019 22:00:00 14.81667 C 75.2500 % 10.48 C
240 25-05-2019 23:00:00 13.38333 C 79.7500 % 9.96 C
241 26-05-2019 00:00:00 11.85 C 85.0000 % 9.41 C
242 26-05-2019 01:00:00 10.775 C 88.8333 % 9.01 C
243 26-05-2019 02:00:00 10.13333 C 90.9167 % 8.72 C
244 26-05-2019 03:00:00 9.44167 C 92.3333 % 8.26 C
245 26-05-2019 04:00:00 8.95 C 93.1667 % 7.91 C
246 26-05-2019 05:00:00 8.825 C 94.4167 % 7.98 C
247 26-05-2019 06:00:00 9.36667 C 94.5000 % 8.53 C
248 26-05-2019 07:00:00 9.9 C 93.6667 % 8.93 C
249 26-05-2019 08:00:00 11.21667 C 93.1667 % 10.15 C
250 26-05-2019 09:00:00 14.3 C 84.5000 % 11.73 C
Sensor: Nr:Datum:Temp:Feuchte:Taupunkt:
Aussen-T/F 251 26-05-2019 10:00:00 16.83333 C 72.8333 % 11.93 C
252 26-05-2019 11:00:00 18.16667 C 63.5833 % 11.15 C
253 26-05-2019 12:00:00 18.99167 C 60.8333 % 11.27 C
254 26-05-2019 13:00:00 20.275 C 58.8333 % 11.96 C
255 26-05-2019 14:00:00 21.68333 C 52.8333 % 11.65 C
256 26-05-2019 15:00:00 23.43333 C 49.0833 % 12.14 C
257 26-05-2019 16:00:00 23.725 C 48.5000 % 12.22 C
258 26-05-2019 17:00:00 21.91667 C 55.7500 % 12.68 C
259 26-05-2019 18:00:00 21.45833 C 58.3333 % 12.94 C
260 26-05-2019 19:00:00 19.93333 C 65.5000 % 13.28 C
261 26-05-2019 20:00:00 18.36667 C 72.2500 % 13.29 C
262 26-05-2019 21:00:00 17.93333 C 70.7500 % 12.55 C
263 26-05-2019 22:00:00 17.68333 C 72.0833 % 12.59 C
264 26-05-2019 23:00:00 16.925 C 75.2500 % 12.52 C
265 27-05-2019 00:00:00 16.29167 C 78.4167 % 12.53 C
266 27-05-2019 01:00:00 15.75 C 80.8333 % 12.47 C
267 27-05-2019 02:00:00 14.7 C 83.2500 % 11.89 C
268 27-05-2019 03:00:00 14.1 C 84.4167 % 11.51 C
269 27-05-2019 04:00:00 13.85 C 87.3333 % 11.78 C
270 27-05-2019 05:00:00 14.19167 C 90.0000 % 12.58 C
271 27-05-2019 06:00:00 13.94167 C 92.8333 % 12.8 C
272 27-05-2019 07:00:00 14.20833 C 94.0000 % 13.26 C
273 27-05-2019 08:00:00 14.94167 C 93.2500 % 13.86 C
274 27-05-2019 09:00:00 15.61667 C 92.6667 % 14.43 C
275 27-05-2019 10:00:00 15.925 C 91.4167 % 14.53 C
Sensor: Nr:Datum:Temp:Feuchte:Taupunkt:
Aussen-T/F 276 27-05-2019 11:00:00 15.25 C 91.5833 % 13.89 C
277 27-05-2019 12:00:00 15.00833 C 93.1667 % 13.91 C
278 27-05-2019 13:00:00 14.39167 C 93.5000 % 13.36 C
279 27-05-2019 14:00:00 14.53333 C 94.3333 % 13.63 C
280 27-05-2019 15:00:00 14.825 C 93.9167 % 13.86 C
281 27-05-2019 16:00:00 15.475 C 93.9167 % 14.5 C
282 27-05-2019 17:00:00 16.075 C 92.5833 % 14.87 C
283 27-05-2019 18:00:00 16.275 C 93.0833 % 15.16 C
284 27-05-2019 19:00:00 16.73333 C 92.9167 % 15.58 C
285 27-05-2019 20:00:00 15.78333 C 91.5833 % 14.42 C
286 27-05-2019 21:00:00 14.68333 C 93.0833 % 13.58 C
287 27-05-2019 22:00:00 13.79167 C 94.2500 % 12.88 C
288 27-05-2019 23:00:00 13.4 C 95.0000 % 12.62 C
289 28-05-2019 00:00:00 12.96667 C 95.6667 % 12.29 C
290 28-05-2019 01:00:00 12.45 C 96.0000 % 11.83 C
291 28-05-2019 02:00:00 12.55 C 96.6667 % 12.03 C
292 28-05-2019 03:00:00 12.41667 C 96.5833 % 11.89 C
293 28-05-2019 04:00:00 11.55 C 96.4167 % 11 C
294 28-05-2019 05:00:00 11.80833 C 97.0000 % 11.35 C
295 28-05-2019 06:00:00 12.18333 C 97.0000 % 11.72 C
296 28-05-2019 07:00:00 12.51667 C 97.0000 % 12.05 C
297 28-05-2019 08:00:00 12.84167 C 97.0000 % 12.38 C
298 28-05-2019 09:00:00 13.425 C 95.5833 % 12.73 C
299 28-05-2019 10:00:00 14.74167 C 87.5000 % 12.69 C
300 28-05-2019 11:00:00 15.65 C 80.8333 % 12.37 C
Sensor: Nr:Datum:Temp:Feuchte:Taupunkt:
Aussen-T/F 301 28-05-2019 12:00:00 16.05 C 74.7500 % 11.57 C
302 28-05-2019 13:00:00 17.49167 C 66.4167 % 11.17 C
303 28-05-2019 14:00:00 16.04167 C 70.3333 % 10.65 C
304 28-05-2019 15:00:00 13.65833 C 84.3333 % 11.07 C
305 28-05-2019 16:00:00 15.80833 C 76.7500 % 11.74 C
306 28-05-2019 17:00:00 16.80833 C 69.8333 % 11.27 C
307 28-05-2019 18:00:00 16.78333 C 65.4167 % 10.27 C
308 28-05-2019 19:00:00 16.08333 C 68.0000 % 10.18 C
309 28-05-2019 20:00:00 14.10833 C 75.7500 % 9.9 C
310 28-05-2019 21:00:00 13.10833 C 81.6667 % 10.05 C
311 28-05-2019 22:00:00 12.15 C 87.5000 % 10.14 C
312 28-05-2019 23:00:00 11.78333 C 88.7500 % 9.99 C
313 29-05-2019 00:00:00 11.70833 C 85.8333 % 9.42 C
314 29-05-2019 01:00:00 11.73333 C 86.5833 % 9.57 C
315 29-05-2019 02:00:00 11.875 C 85.7500 % 9.57 C
316 29-05-2019 03:00:00 11.675 C 87.0000 % 9.59 C
317 29-05-2019 04:00:00 11.44167 C 86.4167 % 9.26 C
318 29-05-2019 05:00:00 11.08333 C 86.5833 % 8.93 C
319 29-05-2019 06:00:00 10.875 C 86.5833 % 8.73 C
320 29-05-2019 07:00:00 10.81667 C 86.0833 % 8.59 C
321 29-05-2019 08:00:00 11.225 C 84.0000 % 8.62 C
322 29-05-2019 09:00:00 12.225 C 80.3333 % 8.94 C
323 29-05-2019 10:00:00 13.83333 C 71.0833 % 8.69 C
324 29-05-2019 11:00:00 15.09167 C 63.7500 % 8.28 C
325 29-05-2019 12:00:00 15.725 C 60.0833 % 8.01 C
Sensor: Nr:Datum:Temp:Feuchte:Taupunkt:
Aussen-T/F 326 29-05-2019 13:00:00 16.48333 C 54.0833 % 7.18 C
327 29-05-2019 14:00:00 17.40833 C 48.4167 % 6.42 C
328 29-05-2019 15:00:00 18.99167 C 44.0000 % 6.48 C
329 29-05-2019 16:00:00 20.91667 C 37.9167 % 6.05 C
330 29-05-2019 17:00:00 22.38333 C 35.0000 % 6.19 C
331 29-05-2019 18:00:00 22.1 C 37.9167 % 7.1 C
332 29-05-2019 19:00:00 21.55 C 44.9167 % 9.09 C
333 29-05-2019 20:00:00 18.66667 C 61.5833 % 11.14 C
334 29-05-2019 21:00:00 15.49167 C 67.4167 % 9.49 C
335 29-05-2019 22:00:00 13.29167 C 77.5000 % 9.45 C
336 29-05-2019 23:00:00 12.91667 C 79.2500 % 9.41 C
337 30-05-2019 00:00:00 12.05833 C 81.2500 % 8.95 C
338 30-05-2019 01:00:00 11.44167 C 84.4167 % 8.91 C
339 30-05-2019 02:00:00 10.88333 C 86.1667 % 8.67 C
340 30-05-2019 03:00:00 9.95 C 88.5833 % 8.15 C
341 30-05-2019 04:00:00 9.56667 C 90.5833 % 8.1 C
342 30-05-2019 05:00:00 9.1 C 92.0000 % 7.87 C
343 30-05-2019 06:00:00 9.71667 C 93.5000 % 8.72 C
344 30-05-2019 07:00:00 10.925 C 91.4167 % 9.58 C
345 30-05-2019 08:00:00 12.375 C 85.9167 % 10.09 C
346 30-05-2019 09:00:00 14.10833 C 81.4167 % 10.98 C
347 30-05-2019 10:00:00 16.09167 C 76.2500 % 11.91 C
348 30-05-2019 11:00:00 18.18333 C 65.4167 % 11.6 C
349 30-05-2019 12:00:00 18.2 C 65.5000 % 11.63 C
350 30-05-2019 13:00:00 18.23333 C 70.0833 % 12.69 C
Sensor: Nr:Datum:Temp:Feuchte:Taupunkt:
Aussen-T/F 351 30-05-2019 14:00:00 19.425 C 67.1667 % 13.18 C
352 30-05-2019 15:00:00 21.175 C 64.3333 % 14.18 C
353 30-05-2019 16:00:00 21.95833 C 62.9167 % 14.57 C
354 30-05-2019 17:00:00 21.625 C 64.7500 % 14.7 C
355 30-05-2019 18:00:00 20.95833 C 67.8333 % 14.79 C
356 30-05-2019 19:00:00 19.95 C 72.0000 % 14.75 C
357 30-05-2019 20:00:00 18.94167 C 77.1667 % 14.85 C
358 30-05-2019 21:00:00 17.675 C 81.8333 % 14.53 C
359 30-05-2019 22:00:00 16.54167 C 85.6667 % 14.13 C
360 30-05-2019 23:00:00 15.89167 C 88.0000 % 13.91 C
361 31-05-2019 00:00:00 15.65 C 89.9167 % 14 C
362 31-05-2019 01:00:00 15.61667 C 90.8333 % 14.12 C
363 31-05-2019 02:00:00 15.46667 C 90.8333 % 13.98 C
364 31-05-2019 03:00:00 14.41667 C 92.0833 % 13.15 C
365 31-05-2019 04:00:00 13.56667 C 93.2500 % 12.5 C
366 31-05-2019 05:00:00 12.83333 C 94.5000 % 11.97 C
367 31-05-2019 06:00:00 12.75 C 95.0000 % 11.97 C
368 31-05-2019 07:00:00 13.1 C 95.9167 % 12.46 C
369 31-05-2019 08:00:00 14.175 C 95.7500 % 13.51 C
370 31-05-2019 09:00:00 16.24167 C 87.9167 % 14.24 C
371 31-05-2019 10:00:00 18.69167 C 74.5833 % 14.09 C
372 31-05-2019 11:00:00 20.225 C 68.2500 % 14.19 C
373 31-05-2019 12:00:00 21.375 C 65.3333 % 14.61 C
374 31-05-2019 13:00:00 22.725 C 60.4167 % 14.67 C
375 31-05-2019 14:00:00 23.925 C 55.5000 % 14.48 C
Sensor: Nr:Datum:Temp:Feuchte:Taupunkt:
Aussen-T/F 376 31-05-2019 15:00:00 25.28333 C 51.5833 % 14.6 C
377 31-05-2019 16:00:00 27.3 C 45.1667 % 14.38 C
378 31-05-2019 17:00:00 27.50833 C 44.6667 % 14.4 C
379 31-05-2019 18:00:00 27.58333 C 43.0833 % 13.91 C
380 31-05-2019 19:00:00 25.63333 C 51.5833 % 14.92 C
381 31-05-2019 20:00:00 23.64167 C 58.6667 % 15.07 C
382 31-05-2019 21:00:00 20.09167 C 71.7500 % 14.83 C
383 31-05-2019 22:00:00 17.725 C 78.6667 % 13.97 C
384 31-05-2019 23:00:00 15.91667 C 85.0833 % 13.41 C
385 01-06-2019 00:00:00 14.65 C 88.8333 % 12.83 C
386 01-06-2019 01:00:00 13.91667 C 91.5833 % 12.57 C
387 01-06-2019 02:00:00 13.325 C 92.6667 % 12.16 C
388 01-06-2019 03:00:00 12.83333 C 93.7500 % 11.85 C
389 01-06-2019 04:00:00 12.2 C 94.0000 % 11.26 C
390 01-06-2019 05:00:00 11.75833 C 94.9167 % 10.97 C
391 01-06-2019 06:00:00 11.825 C 95.3333 % 11.1 C
392 01-06-2019 07:00:00 12.61667 C 96.0000 % 12 C
393 01-06-2019 08:00:00 13.875 C 94.7500 % 13.05 C
394 01-06-2019 09:00:00 15.45 C 91.6667 % 14.1 C
395 01-06-2019 10:00:00 18.14167 C 84.5000 % 15.49 C
396 01-06-2019 11:00:00 20.91667 C 72.0000 % 15.68 C
397 01-06-2019 12:00:00 23.01667 C 63.7500 % 15.78 C
398 01-06-2019 13:00:00 24.31667 C 59.3333 % 15.88 C
399 01-06-2019 14:00:00 25.51667 C 55.6667 % 16 C
400 01-06-2019 15:00:00 27.83333 C 49.5000 % 16.3 C
Sensor: Nr:Datum:Temp:Feuchte:Taupunkt:
Aussen-T/F 401 01-06-2019 16:00:00 29.975 C 43.6667 % 16.27 C
402 01-06-2019 17:00:00 30.09167 C 42.1667 % 15.83 C
403 01-06-2019 18:00:00 30.23333 C 43.3333 % 16.38 C
404 01-06-2019 19:00:00 29.675 C 50.7500 % 18.38 C
405 01-06-2019 20:00:00 26.65833 C 58.9167 % 17.96 C
406 01-06-2019 21:00:00 22.7 C 68.0000 % 16.49 C
407 01-06-2019 22:00:00 20.00833 C 76.0833 % 15.67 C
408 01-06-2019 23:00:00 18.20833 C 82.2500 % 15.13 C
409 02-06-2019 00:00:00 16.75833 C 86.5000 % 14.49 C
410 02-06-2019 01:00:00 15.66667 C 89.3333 % 13.92 C
411 02-06-2019 02:00:00 14.925 C 91.7500 % 13.6 C
412 02-06-2019 03:00:00 14.325 C 93.0000 % 13.21 C
413 02-06-2019 04:00:00 13.81667 C 93.9167 % 12.85 C
414 02-06-2019 05:00:00 13.29167 C 94.5833 % 12.44 C
415 02-06-2019 06:00:00 13.40833 C 95.3333 % 12.68 C
416 02-06-2019 07:00:00 13.95833 C 95.9167 % 13.32 C
417 02-06-2019 08:00:00 15.03333 C 96.0000 % 14.4 C
418 02-06-2019 09:00:00 16.60833 C 95.9167 % 15.95 C
419 02-06-2019 10:00:00 19.64167 C 88.6667 % 17.72 C
420 02-06-2019 11:00:00 23.11667 C 77.1667 % 18.9 C
421 02-06-2019 12:00:00 26.66667 C 57.8333 % 17.67 C
422 02-06-2019 13:00:00 27.96667 C 46.3333 % 15.38 C
423 02-06-2019 14:00:00 29.1 C 45.5833 % 16.16 C
424 02-06-2019 15:00:00 31.04167 C 42.4167 % 16.77 C
425 02-06-2019 16:00:00 32.76667 C 37.2500 % 16.26 C
Sensor: Nr:Datum:Temp:Feuchte:Taupunkt:
Aussen-T/F 426 02-06-2019 17:00:00 33.1 C 37.2500 % 16.56 C
427 02-06-2019 18:00:00 33 C 37.9167 % 16.75 C
428 02-06-2019 19:00:00 32.23333 C 40.0000 % 16.91 C
429 02-06-2019 20:00:00 28.7 C 49.5000 % 17.09 C
430 02-06-2019 21:00:00 24.375 C 58.3333 % 15.67 C
431 02-06-2019 22:00:00 21.35833 C 67.9167 % 15.19 C
432 02-06-2019 23:00:00 19.30833 C 74.8333 % 14.73 C
433 03-06-2019 00:00:00 17.75833 C 79.8333 % 14.23 C
434 03-06-2019 01:00:00 16.825 C 82.3333 % 13.8 C
435 03-06-2019 02:00:00 16.15 C 84.9167 % 13.61 C
436 03-06-2019 03:00:00 15.51667 C 87.5833 % 13.47 C
437 03-06-2019 04:00:00 14.84167 C 89.9167 % 13.2 C
438 03-06-2019 05:00:00 14.775 C 91.8333 % 13.46 C
439 03-06-2019 06:00:00 15.23333 C 92.0000 % 13.94 C
440 03-06-2019 07:00:00 16.11667 C 91.5833 % 14.75 C
441 03-06-2019 08:00:00 17.63333 C 88.6667 % 15.74 C
442 03-06-2019 09:00:00 20.30833 C 85.2500 % 17.75 C
443 03-06-2019 10:00:00 21.325 C 86.5833 % 18.99 C
444 03-06-2019 11:00:00 23.475 C 74.5833 % 18.7 C
445 03-06-2019 12:00:00 26.39167 C 59.7500 % 17.93 C
446 03-06-2019 13:00:00 27.69167 C 52.7500 % 17.17 C
447 03-06-2019 14:00:00 28.44167 C 40.5000 % 13.73 C
448 03-06-2019 15:00:00 29.40833 C 35.0000 % 12.35 C
449 03-06-2019 16:00:00 26.71667 C 46.0833 % 14.17 C
450 03-06-2019 17:00:00 25.15833 C 57.9167 % 16.29 C
Sensor: Nr:Datum:Temp:Feuchte:Taupunkt:
Aussen-T/F 451 03-06-2019 18:00:00 23.71667 C 63.9167 % 16.48 C
452 03-06-2019 19:00:00 22.66667 C 68.0833 % 16.48 C
453 03-06-2019 20:00:00 22.29167 C 70.0000 % 16.56 C
454 03-06-2019 21:00:00 20.63333 C 74.5833 % 15.96 C
455 03-06-2019 22:00:00 19.40833 C 77.7500 % 15.42 C
456 03-06-2019 23:00:00 18.06667 C 81.5833 % 14.87 C
457 04-06-2019 00:00:00 16.71667 C 86.5000 % 14.45 C
458 04-06-2019 01:00:00 15.84167 C 89.7500 % 14.16 C
459 04-06-2019 02:00:00 15.15 C 91.8333 % 13.83 C
460 04-06-2019 03:00:00 14.41667 C 92.9167 % 13.29 C
461 04-06-2019 04:00:00 13.65833 C 93.5000 % 12.63 C
462 04-06-2019 05:00:00 13.2 C 94.2500 % 12.3 C
463 04-06-2019 06:00:00 13.275 C 95.1667 % 12.52 C
464 04-06-2019 07:00:00 14.525 C 95.0000 % 13.73 C
465 04-06-2019 08:00:00 16.05 C 91.9167 % 14.74 C
466 04-06-2019 09:00:00 17.45 C 88.6667 % 15.56 C
467 04-06-2019 10:00:00 20.16667 C 78.6667 % 16.34 C
468 04-06-2019 11:00:00 22.35833 C 71.0833 % 16.86 C
469 04-06-2019 12:00:00 23.89167 C 68.1667 % 17.66 C
470 04-06-2019 13:00:00 25.74167 C 60.4167 % 17.5 C
471 04-06-2019 14:00:00 27.4 C 54.5833 % 17.44 C
472 04-06-2019 15:00:00 28.7 C 52.2500 % 17.95 C
473 04-06-2019 16:00:00 30.56667 C 49.5833 % 18.82 C
474 04-06-2019 17:00:00 31.925 C 44.4167 % 18.3 C
475 04-06-2019 18:00:00 31.24167 C 47.4167 % 18.72 C
Sensor: Nr:Datum:Temp:Feuchte:Taupunkt:
Aussen-T/F 476 04-06-2019 19:00:00 29.25 C 54.9167 % 19.25 C
477 04-06-2019 20:00:00 26.51667 C 62.5833 % 18.79 C
478 04-06-2019 21:00:00 23.36667 C 67.6667 % 17.05 C
479 04-06-2019 22:00:00 22.025 C 70.6667 % 16.45 C
480 04-06-2019 23:00:00 22.70833 C 64.8333 % 15.75 C
481 05-06-2019 00:00:00 23.28333 C 63.0000 % 15.85 C
482 05-06-2019 01:00:00 21.33333 C 69.9167 % 15.62 C
483 05-06-2019 02:00:00 20.575 C 74.1667 % 15.81 C
484 05-06-2019 03:00:00 19.35 C 77.8333 % 15.38 C
485 05-06-2019 04:00:00 18.80833 C 80.2500 % 15.33 C
486 05-06-2019 05:00:00 17.44167 C 83.8333 % 14.68 C
487 05-06-2019 06:00:00 17.69167 C 85.2500 % 15.18 C
488 05-06-2019 07:00:00 17.98333 C 86.5833 % 15.71 C
489 05-06-2019 08:00:00 18.38333 C 88.0000 % 16.36 C
490 05-06-2019 09:00:00 21.025 C 76.4167 % 16.72 C
491 05-06-2019 10:00:00 22.73333 C 70.5833 % 17.11 C
492 05-06-2019 11:00:00 23.64167 C 66.3333 % 17 C
493 05-06-2019 12:00:00 24.34167 C 63.2500 % 16.91 C
494 05-06-2019 13:00:00 25.925 C 60.1667 % 17.61 C
495 05-06-2019 14:00:00 27.25833 C 56.0833 % 17.74 C
496 05-06-2019 15:00:00 29.5 C 49.5833 % 17.85 C
497 05-06-2019 16:00:00 31.35 C 41.7500 % 16.8 C
498 05-06-2019 17:00:00 30.43333 C 46.7500 % 17.76 C
499 05-06-2019 18:00:00 28.60833 C 56.1667 % 19.01 C
500 05-06-2019 19:00:00 29.73333 C 54.6667 % 19.62 C
Sensor: Nr:Datum:Temp:Feuchte:Taupunkt:
Aussen-T/F 501 05-06-2019 20:00:00 27.55833 C 56.5833 % 18.16 C
502 05-06-2019 21:00:00 23.44167 C 68.3333 % 17.27 C
503 05-06-2019 22:00:00 21.625 C 75.6667 % 17.14 C
504 05-06-2019 23:00:00 20.83333 C 77.2500 % 16.7 C
505 06-06-2019 00:00:00 21.575 C 69.2500 % 15.7 C
506 06-06-2019 01:00:00 18.925 C 81.5833 % 15.71 C
507 06-06-2019 02:00:00 17.10833 C 91.9167 % 15.78 C
508 06-06-2019 03:00:00 16.70833 C 93.6667 % 15.68 C
509 06-06-2019 04:00:00 16.48333 C 94.5833 % 15.61 C
510 06-06-2019 05:00:00 15.51667 C 93.6667 % 14.5 C
511 06-06-2019 06:00:00 13.94167 C 92.3333 % 12.72 C
512 06-06-2019 07:00:00 13.19167 C 89.6667 % 11.53 C
513 06-06-2019 08:00:00 13.325 C 84.5833 % 10.78 C
514 06-06-2019 09:00:00 13.10833 C 81.1667 % 9.96 C
515 06-06-2019 10:00:00 13.80833 C 80.0000 % 10.42 C
516 06-06-2019 11:00:00 14.93333 C 75.5000 % 10.64 C
517 06-06-2019 12:00:00 15.40833 C 73.2500 % 10.65 C
518 06-06-2019 13:00:00 16.49167 C 69.3333 % 10.86 C
519 06-06-2019 14:00:00 17.025 C 68.1667 % 11.12 C
520 06-06-2019 15:00:00 17.75833 C 66.4167 % 11.42 C
521 06-06-2019 16:00:00 18 C 65.5000 % 11.44 C
522 06-06-2019 17:00:00 16.73333 C 69.1667 % 11.06 C
523 06-06-2019 18:00:00 16.975 C 69.9167 % 11.45 C
524 06-06-2019 19:00:00 18.26667 C 63.5833 % 11.25 C
525 06-06-2019 20:00:00 17.725 C 65.3333 % 11.14 C
Sensor: Nr:Datum:Temp:Feuchte:Taupunkt:
Aussen-T/F 526 06-06-2019 21:00:00 15.43333 C 75.4167 % 11.11 C
527 06-06-2019 22:00:00 12.75 C 83.8333 % 10.09 C
528 06-06-2019 23:00:00 11.43333 C 87.5000 % 9.43 C
529 07-06-2019 00:00:00 10.475 C 90.4167 % 8.97 C
530 07-06-2019 01:00:00 9.875 C 92.1667 % 8.66 C
531 07-06-2019 02:00:00 9.425 C 93.0833 % 8.36 C
532 07-06-2019 03:00:00 9.56667 C 94.5000 % 8.73 C
533 07-06-2019 04:00:00 10.13333 C 94.6667 % 9.32 C
534 07-06-2019 05:00:00 9.23333 C 94.3333 % 8.37 C
535 07-06-2019 06:00:00 9.60833 C 95.7500 % 8.96 C
536 07-06-2019 07:00:00 10.38333 C 96.0000 % 9.77 C
537 07-06-2019 08:00:00 11.86667 C 92.5833 % 10.7 C
538 07-06-2019 09:00:00 13.75833 C 84.1667 % 11.13 C
539 07-06-2019 10:00:00 16.65 C 75.8333 % 12.37 C
540 07-06-2019 11:00:00 18.75833 C 65.5000 % 12.16 C
541 07-06-2019 12:00:00 19.9 C 63.4167 % 12.75 C
542 07-06-2019 13:00:00 20.89167 C 64.3333 % 13.91 C
543 07-06-2019 14:00:00 21.09167 C 68.1667 % 15 C
544 07-06-2019 15:00:00 24.175 C 57.1667 % 15.17 C
545 07-06-2019 16:00:00 25.96667 C 50.5833 % 14.92 C
546 07-06-2019 17:00:00 25.36667 C 57.9167 % 16.48 C
547 07-06-2019 18:00:00 21.74167 C 58.5833 % 13.27 C
548 07-06-2019 19:00:00 17.18333 C 62.6667 % 10.01 C
549 07-06-2019 20:00:00 15.41667 C 71.6667 % 10.33 C
550 07-06-2019 21:00:00 14.95 C 72.9167 % 10.14 C
Sensor: Nr:Datum:Temp:Feuchte:Taupunkt:
Aussen-T/F 551 07-06-2019 22:00:00 14.8 C 69.8333 % 9.35 C
552 07-06-2019 23:00:00 15.125 C 66.5000 % 8.94 C
553 08-06-2019 00:00:00 15.46667 C 66.4167 % 9.24 C
554 08-06-2019 01:00:00 15.61667 C 65.2500 % 9.12 C
555 08-06-2019 02:00:00 15.34167 C 67.0833 % 9.27 C
556 08-06-2019 03:00:00 15.06667 C 67.0000 % 8.99 C
557 08-06-2019 04:00:00 14.86667 C 64.0000 % 8.13 C
558 08-06-2019 05:00:00 14.10833 C 63.3333 % 7.26 C
559 08-06-2019 06:00:00 13.325 C 66.7500 % 7.28 C
560 08-06-2019 07:00:00 13.69167 C 65.5000 % 7.35 C
561 08-06-2019 08:00:00 14.29167 C 65.3333 % 7.88 C
562 08-06-2019 09:00:00 14.575 C 66.0833 % 8.32 C
563 08-06-2019 10:00:00 14.90833 C 66.5833 % 8.75 C
564 08-06-2019 11:00:00 15.70833 C 64.1667 % 8.96 C
565 08-06-2019 12:00:00 16.525 C 61.5000 % 9.11 C
566 08-06-2019 13:00:00 17.38333 C 57.6667 % 8.96 C
567 08-06-2019 14:00:00 18.325 C 55.7500 % 9.34 C
568 08-06-2019 15:00:00 19.15 C 52.5000 % 9.21 C
569 08-06-2019 16:00:00 19.65833 C 50.8333 % 9.2 C
570 08-06-2019 17:00:00 19.925 C 49.5000 % 9.05 C
571 08-06-2019 18:00:00 19.95833 C 49.4167 % 9.06 C
572 08-06-2019 19:00:00 18.98333 C 54.5000 % 9.61 C
573 08-06-2019 20:00:00 17.61667 C 62.2500 % 10.32 C
574 08-06-2019 21:00:00 16.11667 C 70.0000 % 10.65 C
575 08-06-2019 22:00:00 14.39167 C 74.5833 % 9.94 C
Sensor: Nr:Datum:Temp:Feuchte:Taupunkt:
Aussen-T/F 576 08-06-2019 23:00:00 12.65833 C 80.5833 % 9.41 C
577 09-06-2019 00:00:00 11.66667 C 84.6667 % 9.17 C
578 09-06-2019 01:00:00 11.08333 C 86.9167 % 8.99 C
579 09-06-2019 02:00:00 10.925 C 87.3333 % 8.91 C
580 09-06-2019 03:00:00 10.28333 C 89.0833 % 8.57 C
581 09-06-2019 04:00:00 9.4 C 90.3333 % 7.9 C
582 09-06-2019 05:00:00 8.675 C 92.3333 % 7.5 C
583 09-06-2019 06:00:00 8.63333 C 93.4167 % 7.63 C
584 09-06-2019 07:00:00 9.68333 C 94.4167 % 8.83 C
585 09-06-2019 08:00:00 11.03333 C 94.2500 % 10.15 C
586 09-06-2019 09:00:00 12.80833 C 90.8333 % 11.35 C
587 09-06-2019 10:00:00 16.55 C 73.0000 % 11.7 C
588 09-06-2019 11:00:00 18.86667 C 57.5833 % 10.32 C
589 09-06-2019 12:00:00 19.76667 C 53.6667 % 10.11 C
590 09-06-2019 13:00:00 20.71667 C 51.6667 % 10.42 C
591 09-06-2019 14:00:00 21.925 C 50.5000 % 11.19 C
592 09-06-2019 15:00:00 22.45833 C 50.3333 % 11.63 C
593 09-06-2019 16:00:00 22.79167 C 50.6667 % 12.03 C
594 09-06-2019 17:00:00 22.7 C 51.5833 % 12.22 C
595 09-06-2019 18:00:00 23.09167 C 50.4167 % 12.23 C
596 09-06-2019 19:00:00 21.64167 C 63.5000 % 14.42 C
597 09-06-2019 20:00:00 19.74167 C 69.0833 % 13.91 C
598 09-06-2019 21:00:00 18.86667 C 72.1667 % 13.75 C
599 09-06-2019 22:00:00 18.36667 C 74.5833 % 13.77 C
600 09-06-2019 23:00:00 17.95 C 76.1667 % 13.69 C
Sensor: Nr:Datum:Temp:Feuchte:Taupunkt:
Aussen-T/F 601 10-06-2019 00:00:00 17.525 C 77.8333 % 13.62 C
602 10-06-2019 01:00:00 16.95833 C 77.6667 % 13.03 C
603 10-06-2019 02:00:00 16.08333 C 79.7500 % 12.59 C
604 10-06-2019 03:00:00 14.94167 C 84.7500 % 12.4 C
605 10-06-2019 04:00:00 14.625 C 86.5000 % 12.4 C
606 10-06-2019 05:00:00 14.775 C 87.5000 % 12.72 C
607 10-06-2019 06:00:00 14.825 C 88.5000 % 12.94 C
608 10-06-2019 07:00:00 15.5 C 87.4167 % 13.42 C
609 10-06-2019 08:00:00 17.725 C 80.2500 % 14.28 C
610 10-06-2019 09:00:00 18.94167 C 75.8333 % 14.58 C
611 10-06-2019 10:00:00 19.85 C 73.1667 % 14.91 C
612 10-06-2019 11:00:00 21.15833 C 68.5000 % 15.13 C
613 10-06-2019 12:00:00 22.34167 C 63.6667 % 15.12 C
614 10-06-2019 13:00:00 23.06667 C 61.5833 % 15.29 C
615 10-06-2019 14:00:00 23.225 C 62.5833 % 15.69 C
616 10-06-2019 15:00:00 23.225 C 62.9167 % 15.77 C
617 10-06-2019 16:00:00 24.06667 C 59.8333 % 15.78 C
618 10-06-2019 17:00:00 23.65 C 60.7500 % 15.62 C
619 10-06-2019 18:00:00 23.19167 C 61.9167 % 15.49 C
620 10-06-2019 19:00:00 21.7 C 64.6667 % 14.76 C
621 10-06-2019 20:00:00 20.61667 C 69.9167 % 14.94 C
622 10-06-2019 21:00:00 19.38333 C 74.6667 % 14.77 C
623 10-06-2019 22:00:00 17.975 C 79.5000 % 14.38 C
624 10-06-2019 23:00:00 17.09167 C 82.5000 % 14.09 C
625 11-06-2019 00:00:00 16.55833 C 85.5000 % 14.12 C
Sensor: Nr:Datum:Temp:Feuchte:Taupunkt:
Aussen-T/F 626 11-06-2019 01:00:00 16.38333 C 86.8333 % 14.19 C
627 11-06-2019 02:00:00 16.15833 C 86.2500 % 13.86 C
628 11-06-2019 03:00:00 15.29167 C 90.6667 % 13.78 C
629 11-06-2019 04:00:00 14.6 C 93.0833 % 13.5 C
630 11-06-2019 05:00:00 14.21667 C 94.0000 % 13.27 C
631 11-06-2019 06:00:00 14.15833 C 94.8333 % 13.34 C
632 11-06-2019 07:00:00 14.5 C 95.3333 % 13.76 C
633 11-06-2019 08:00:00 15.01667 C 95.5833 % 14.32 C
634 11-06-2019 09:00:00 15.34167 C 93.8333 % 14.35 C
635 11-06-2019 10:00:00 16.16667 C 90.7500 % 14.65 C
636 11-06-2019 11:00:00 16.925 C 85.2500 % 14.43 C
637 11-06-2019 12:00:00 17.81667 C 78.5833 % 14.05 C
638 11-06-2019 13:00:00 19.09167 C 71.9167 % 13.91 C
639 11-06-2019 14:00:00 20.24167 C 66.0833 % 13.71 C
640 11-06-2019 15:00:00 21.31667 C 61.8333 % 13.7 C
641 11-06-2019 16:00:00 20.94167 C 66.5000 % 14.47 C
642 11-06-2019 17:00:00 19.28333 C 79.3333 % 15.62 C
643 11-06-2019 18:00:00 18.75833 C 82.1667 % 15.65 C
644 11-06-2019 19:00:00 20.35 C 71.0000 % 14.92 C
645 11-06-2019 20:00:00 19.19167 C 79.8333 % 15.63 C
646 11-06-2019 21:00:00 17.76667 C 83.1667 % 14.87 C
647 11-06-2019 22:00:00 16.79167 C 84.7500 % 14.21 C
648 11-06-2019 23:00:00 15.70833 C 86.5000 % 13.46 C
649 12-06-2019 00:00:00 15.16667 C 87.0000 % 13.02 C
650 12-06-2019 01:00:00 14.39167 C 88.8333 % 12.57 C
Sensor: Nr:Datum:Temp:Feuchte:Taupunkt:
Aussen-T/F 651 12-06-2019 02:00:00 14.59167 C 90.0000 % 12.97 C
652 12-06-2019 03:00:00 14.525 C 90.7500 % 13.03 C
653 12-06-2019 04:00:00 14.39167 C 91.0000 % 12.94 C
654 12-06-2019 05:00:00 14.125 C 91.7500 % 12.8 C
655 12-06-2019 06:00:00 13.95833 C 92.4167 % 12.75 C
656 12-06-2019 07:00:00 14.875 C 91.3333 % 13.48 C
657 12-06-2019 08:00:00 15.81667 C 88.6667 % 13.95 C
658 12-06-2019 09:00:00 16.53333 C 85.8333 % 14.15 C
659 12-06-2019 10:00:00 15.15 C 91.9167 % 13.85 C
660 12-06-2019 11:00:00 13.975 C 93.4167 % 12.93 C
661 12-06-2019 12:00:00 14.40833 C 95.0000 % 13.62 C
662 12-06-2019 13:00:00 15.325 C 93.0000 % 14.2 C
663 12-06-2019 14:00:00 17.175 C 83.9167 % 14.43 C
664 12-06-2019 15:00:00 18.2 C 77.9167 % 14.29 C
665 12-06-2019 16:00:00 20.125 C 66.5833 % 13.71 C
666 12-06-2019 17:00:00 21.81667 C 59.0000 % 13.45 C
667 12-06-2019 18:00:00 22.64167 C 53.9167 % 12.84 C
668 12-06-2019 19:00:00 21.925 C 53.0833 % 11.94 C
669 12-06-2019 20:00:00 21.23333 C 62.8333 % 13.87 C
670 12-06-2019 21:00:00 17.83333 C 74.5000 % 13.24 C
671 12-06-2019 22:00:00 14.38333 C 84.7500 % 11.85 C
672 12-06-2019 23:00:00 13.15833 C 88.2500 % 11.26 C
673 13-06-2019 00:00:00 12.55833 C 89.5833 % 10.89 C
674 13-06-2019 01:00:00 11.68333 C 90.7500 % 10.22 C
675 13-06-2019 02:00:00 10.9 C 92.4167 % 9.72 C
Sensor: Nr:Datum:Temp:Feuchte:Taupunkt:
Aussen-T/F 676 13-06-2019 03:00:00 10.29167 C 93.5833 % 9.3 C
677 13-06-2019 04:00:00 9.775 C 94.0000 % 8.86 C
678 13-06-2019 05:00:00 9.45833 C 94.9167 % 8.69 C
679 13-06-2019 06:00:00 9.50833 C 95.3333 % 8.8 C
680 13-06-2019 07:00:00 10.31667 C 96.0000 % 9.71 C
681 13-06-2019 08:00:00 11.75 C 95.6667 % 11.08 C
682 13-06-2019 09:00:00 15.15833 C 79.0833 % 11.56 C
683 13-06-2019 10:00:00 17.91667 C 65.0833 % 11.27 C
684 13-06-2019 11:00:00 19.15 C 60.8333 % 11.41 C
685 13-06-2019 12:00:00 19.41667 C 57.0000 % 10.68 C
686 13-06-2019 13:00:00 20.875 C 53.3333 % 11.04 C
687 13-06-2019 14:00:00 21.26667 C 51.1667 % 10.78 C
688 13-06-2019 15:00:00 22.13333 C 48.6667 % 10.82 C
689 13-06-2019 16:00:00 23.85833 C 42.2500 % 10.27 C
690 13-06-2019 17:00:00 24.41667 C 41.5833 % 10.53 C
691 13-06-2019 18:00:00 24.325 C 43.0833 % 10.98 C
692 13-06-2019 19:00:00 20.40833 C 65.3333 % 13.69 C
693 13-06-2019 20:00:00 15.975 C 89.5000 % 14.25 C
694 13-06-2019 21:00:00 15.11667 C 89.0000 % 13.32 C
695 13-06-2019 22:00:00 13.21667 C 91.6667 % 11.89 C
696 13-06-2019 23:00:00 12.78333 C 93.8333 % 11.82 C
697 14-06-2019 00:00:00 12.06667 C 94.1667 % 11.16 C
698 14-06-2019 01:00:00 11.73333 C 95.1667 % 10.99 C
699 14-06-2019 02:00:00 12.16667 C 96.0000 % 11.55 C
700 14-06-2019 03:00:00 12.00833 C 96.0000 % 11.39 C
Sensor: Nr:Datum:Temp:Feuchte:Taupunkt:
Aussen-T/F 701 14-06-2019 04:00:00 11.59167 C 96.0000 % 10.98 C
702 14-06-2019 05:00:00 11.41667 C 96.4167 % 10.87 C
703 14-06-2019 06:00:00 11.33333 C 96.7500 % 10.84 C
704 14-06-2019 07:00:00 11.43333 C 97.0000 % 10.97 C
705 14-06-2019 08:00:00 12.15 C 97.0000 % 11.69 C
706 14-06-2019 09:00:00 14.29167 C 97.8333 % 13.95 C
707 14-06-2019 10:00:00 17.16667 C 98.0000 % 16.85 C
708 14-06-2019 11:00:00 18.61667 C 96.0000 % 17.97 C
709 14-06-2019 12:00:00 21.65833 C 71.3333 % 16.25 C
710 14-06-2019 13:00:00 24.26667 C 57.5833 % 15.37 C
711 14-06-2019 14:00:00 26 C 50.2500 % 14.85 C
712 14-06-2019 15:00:00 26.35 C 50.6667 % 15.3 C
713 14-06-2019 16:00:00 25.95 C 57.5000 % 16.91 C
714 14-06-2019 17:00:00 25.23333 C 65.7500 % 18.37 C
715 14-06-2019 18:00:00 24.49167 C 68.7500 % 18.37 C
716 14-06-2019 19:00:00 22.55 C 74.2500 % 17.74 C
717 14-06-2019 20:00:00 20.29167 C 78.3333 % 16.4 C
718 14-06-2019 21:00:00 19.08333 C 83.5000 % 16.22 C
719 14-06-2019 22:00:00 18.79167 C 83.7500 % 15.98 C
720 14-06-2019 23:00:00 18.6 C 86.5000 % 16.3 C
721 15-06-2019 00:00:00 17.59167 C 91.5833 % 16.21 C
722 15-06-2019 01:00:00 16.49167 C 93.1667 % 15.38 C
723 15-06-2019 02:00:00 15.68333 C 94.1667 % 14.75 C
724 15-06-2019 03:00:00 15.16667 C 95.0833 % 14.38 C
725 15-06-2019 04:00:00 15.14167 C 95.6667 % 14.45 C
Sensor: Nr:Datum:Temp:Feuchte:Taupunkt:
Aussen-T/F 726 15-06-2019 05:00:00 15.01667 C 96.0833 % 14.4 C
727 15-06-2019 06:00:00 15.54167 C 96.4167 % 14.97 C
728 15-06-2019 07:00:00 16.175 C 97.0000 % 15.7 C
729 15-06-2019 08:00:00 16.94167 C 96.4167 % 16.37 C
730 15-06-2019 09:00:00 18.45833 C 89.9167 % 16.77 C
731 15-06-2019 10:00:00 19.93333 C 81.8333 % 16.74 C
732 15-06-2019 11:00:00 20.8 C 72.4167 % 15.66 C
733 15-06-2019 12:00:00 21.60833 C 69.5833 % 15.81 C
734 15-06-2019 13:00:00 21.28333 C 73.9167 % 16.44 C
735 15-06-2019 14:00:00 21.65833 C 73.5000 % 16.72 C
736 15-06-2019 15:00:00 22.11667 C 69.6667 % 16.31 C
737 15-06-2019 16:00:00 23.775 C 63.6667 % 16.48 C
738 15-06-2019 17:00:00 25.35833 C 54.7500 % 15.59 C
739 15-06-2019 18:00:00 26.24167 C 48.8333 % 14.63 C
740 15-06-2019 19:00:00 25.35833 C 54.0833 % 15.4 C
741 15-06-2019 20:00:00 23.43333 C 65.5000 % 16.6 C
742 15-06-2019 21:00:00 21.01667 C 71.0833 % 15.58 C
743 15-06-2019 22:00:00 18.48333 C 78.6667 % 14.71 C
744 15-06-2019 23:00:00 17.625 C 81.7500 % 14.47 C
745 16-06-2019 00:00:00 17.3 C 83.2500 % 14.43 C
746 16-06-2019 01:00:00 17.4 C 83.0833 % 14.5 C
747 16-06-2019 02:00:00 17.19167 C 83.9167 % 14.45 C
748 16-06-2019 03:00:00 16.9 C 84.5000 % 14.27 C
749 16-06-2019 04:00:00 17.08333 C 82.4167 % 14.07 C
750 16-06-2019 05:00:00 16.3 C 85.1667 % 13.81 C
Sensor: Nr:Datum:Temp:Feuchte:Taupunkt:
Aussen-T/F 751 16-06-2019 06:00:00 15.46667 C 89.4167 % 13.73 C
752 16-06-2019 07:00:00 15.55 C 91.3333 % 14.14 C
753 16-06-2019 08:00:00 16.04167 C 89.7500 % 14.36 C
754 16-06-2019 09:00:00 17.04167 C 81.2500 % 13.81 C
755 16-06-2019 10:00:00 19.3 C 69.7500 % 13.64 C
756 16-06-2019 11:00:00 20.84167 C 60.6667 % 12.96 C
757 16-06-2019 12:00:00 21.34167 C 59.1667 % 13.05 C
758 16-06-2019 13:00:00 22.35 C 54.7500 % 12.8 C
759 16-06-2019 14:00:00 22.56667 C 55.9167 % 13.33 C
760 16-06-2019 15:00:00 23.03333 C 54.9167 % 13.48 C
761 16-06-2019 16:00:00 23.225 C 55.0833 % 13.71 C
762 16-06-2019 17:00:00 22.275 C 58.5833 % 13.77 C
763 16-06-2019 18:00:00 24.04167 C 51.7500 % 13.51 C
764 16-06-2019 19:00:00 23.55 C 54.6667 % 13.89 C
765 16-06-2019 20:00:00 22.61667 C 57.8333 % 13.89 C
766 16-06-2019 21:00:00 20.29167 C 67.7500 % 14.14 C
767 16-06-2019 22:00:00 17.21667 C 76.5833 % 13.07 C
768 16-06-2019 23:00:00 15.35 C 82.7500 % 12.43 C
769 17-06-2019 00:00:00 14.14167 C 85.6667 % 11.78 C
770 17-06-2019 01:00:00 13.31667 C 88.2500 % 11.42 C
771 17-06-2019 02:00:00 12.625 C 90.4167 % 11.1 C
772 17-06-2019 03:00:00 11.95833 C 91.8333 % 10.67 C
773 17-06-2019 04:00:00 11.43333 C 93.0000 % 10.34 C
774 17-06-2019 05:00:00 11.075 C 93.9167 % 10.13 C
775 17-06-2019 06:00:00 11.08333 C 95.0000 % 10.31 C
Sensor: Nr:Datum:Temp:Feuchte:Taupunkt:
Aussen-T/F 776 17-06-2019 07:00:00 11.575 C 95.2500 % 10.84 C
777 17-06-2019 08:00:00 12.66667 C 96.0000 % 12.05 C
778 17-06-2019 09:00:00 14.46667 C 94.8333 % 13.65 C
779 17-06-2019 10:00:00 18.59167 C 82.0833 % 15.48 C
780 17-06-2019 11:00:00 22.31667 C 63.0000 % 14.93 C
781 17-06-2019 12:00:00 23.475 C 58.1667 % 14.78 C
782 17-06-2019 13:00:00 24.45833 C 54.7500 % 14.76 C
783 17-06-2019 14:00:00 25.15833 C 50.7500 % 14.23 C
784 17-06-2019 15:00:00 25.26667 C 50.6667 % 14.31 C
785 17-06-2019 16:00:00 26.71667 C 49.6667 % 15.33 C
786 17-06-2019 17:00:00 28.43333 C 42.1667 % 14.34 C
787 17-06-2019 18:00:00 27.90833 C 46.3333 % 15.33 C
788 17-06-2019 19:00:00 27.64167 C 47.5833 % 15.5 C
789 17-06-2019 20:00:00 23.58333 C 61.1667 % 15.67 C
790 17-06-2019 21:00:00 20.78333 C 68.0833 % 14.68 C
791 17-06-2019 22:00:00 18.73333 C 75.2500 % 14.26 C
792 17-06-2019 23:00:00 17.06667 C 80.8333 % 13.75 C
793 18-06-2019 00:00:00 15.86667 C 84.5000 % 13.26 C
794 18-06-2019 01:00:00 15.09167 C 87.2500 % 12.99 C
795 18-06-2019 02:00:00 14.43333 C 89.1667 % 12.67 C
796 18-06-2019 03:00:00 13.8 C 91.3333 % 12.41 C
797 18-06-2019 04:00:00 13.8 C 92.2500 % 12.56 C
798 18-06-2019 05:00:00 13.625 C 92.4167 % 12.42 C
799 18-06-2019 06:00:00 13.65 C 93.7500 % 12.66 C
800 18-06-2019 07:00:00 14.75 C 92.1667 % 13.49 C
Sensor: Nr:Datum:Temp:Feuchte:Taupunkt:
Aussen-T/F 801 18-06-2019 08:00:00 16.01667 C 90.0000 % 14.38 C
802 18-06-2019 09:00:00 17.65 C 88.2500 % 15.68 C
803 18-06-2019 10:00:00 20.80833 C 82.3333 % 17.69 C
804 18-06-2019 11:00:00 24.26667 C 67.8333 % 17.94 C
805 18-06-2019 12:00:00 26.78333 C 53.9167 % 16.67 C
806 18-06-2019 13:00:00 28.125 C 47.0000 % 15.75 C
807 18-06-2019 14:00:00 28.825 C 45.3333 % 15.82 C
808 18-06-2019 15:00:00 29.825 C 43.5000 % 16.08 C
809 18-06-2019 16:00:00 29.575 C 46.0833 % 16.76 C
810 18-06-2019 17:00:00 29.48333 C 56.4167 % 19.9 C
811 18-06-2019 18:00:00 29.725 C 55.1667 % 19.76 C
812 18-06-2019 19:00:00 27.95 C 60.5833 % 19.62 C
813 18-06-2019 20:00:00 26.03333 C 63.7500 % 18.63 C
814 18-06-2019 21:00:00 23.73333 C 68.0833 % 17.49 C
815 18-06-2019 22:00:00 21.45 C 74.5833 % 16.75 C
816 18-06-2019 23:00:00 19.83333 C 79.5833 % 16.2 C
817 19-06-2019 00:00:00 18.48333 C 83.5833 % 15.65 C
818 19-06-2019 01:00:00 17.61667 C 86.5833 % 15.35 C
819 19-06-2019 02:00:00 17.39167 C 88.3333 % 15.44 C
820 19-06-2019 03:00:00 16.53333 C 89.8333 % 14.86 C
821 19-06-2019 04:00:00 15.775 C 91.0000 % 14.31 C
822 19-06-2019 05:00:00 15.19167 C 92.8333 % 14.04 C
823 19-06-2019 06:00:00 14.99167 C 93.6667 % 13.98 C
824 19-06-2019 07:00:00 15.425 C 94.8333 % 14.6 C
825 19-06-2019 08:00:00 16.54167 C 95.0000 % 15.74 C
Sensor: Nr:Datum:Temp:Feuchte:Taupunkt:
Aussen-T/F 826 19-06-2019 09:00:00 18.46667 C 93.8333 % 17.45 C
827 19-06-2019 10:00:00 23.44167 C 73.4167 % 18.41 C
828 19-06-2019 11:00:00 26.775 C 54.0833 % 16.71 C
829 19-06-2019 12:00:00 26.475 C 59.5833 % 17.97 C
830 19-06-2019 13:00:00 26 C 63.0000 % 18.41 C
831 19-06-2019 14:00:00 27.00833 C 53.5000 % 16.76 C
832 19-06-2019 15:00:00 27.25 C 56.8333 % 17.94 C
833 19-06-2019 16:00:00 29.925 C 48.6667 % 17.94 C
834 19-06-2019 17:00:00 31.25833 C 41.2500 % 16.53 C
835 19-06-2019 18:00:00 28.4 C 56.5833 % 18.94 C
836 19-06-2019 19:00:00 28.94167 C 53.0833 % 18.42 C
837 19-06-2019 20:00:00 25.31667 C 65.3333 % 18.34 C
838 19-06-2019 21:00:00 23.275 C 70.8333 % 17.68 C
839 19-06-2019 22:00:00 21.68333 C 74.0000 % 16.85 C
840 19-06-2019 23:00:00 19.925 C 79.8333 % 16.34 C
841 20-06-2019 00:00:00 18.75 C 83.3333 % 15.87 C
842 20-06-2019 01:00:00 17.98333 C 86.2500 % 15.65 C
843 20-06-2019 02:00:00 17.45833 C 88.7500 % 15.58 C
844 20-06-2019 03:00:00 17.7 C 89.5000 % 15.95 C
845 20-06-2019 04:00:00 17.31667 C 89.5833 % 15.59 C
846 20-06-2019 05:00:00 16.68333 C 91.3333 % 15.26 C
847 20-06-2019 06:00:00 16.85833 C 92.3333 % 15.61 C
848 20-06-2019 07:00:00 17.73333 C 89.2500 % 15.94 C
849 20-06-2019 08:00:00 19.45 C 81.4167 % 16.18 C
850 20-06-2019 09:00:00 20.2 C 75.9167 % 15.82 C
Sensor: Nr:Datum:Temp:Feuchte:Taupunkt:
Aussen-T/F 851 20-06-2019 10:00:00 21.30833 C 70.7500 % 15.78 C
852 20-06-2019 11:00:00 21.89167 C 69.9167 % 16.15 C
853 20-06-2019 12:00:00 22.65 C 66.5000 % 16.09 C
854 20-06-2019 13:00:00 23.24167 C 64.7500 % 16.24 C
855 20-06-2019 14:00:00 24.61667 C 58.7500 % 16.01 C
856 20-06-2019 15:00:00 21.45833 C 75.0833 % 16.86 C
857 20-06-2019 16:00:00 22.75 C 71.9167 % 17.42 C
858 20-06-2019 17:00:00 21.25833 C 76.5000 % 16.96 C
859 20-06-2019 18:00:00 20 C 81.0833 % 16.66 C
860 20-06-2019 19:00:00 18.75833 C 81.8333 % 15.59 C
861 20-06-2019 20:00:00 18.66667 C 82.3333 % 15.6 C
862 20-06-2019 21:00:00 18.21667 C 84.0833 % 15.48 C
863 20-06-2019 22:00:00 16.9 C 87.0000 % 14.72 C
864 20-06-2019 23:00:00 15.725 C 90.6667 % 14.2 C
865 21-06-2019 00:00:00 15.5 C 93.5000 % 14.46 C
866 21-06-2019 01:00:00 14.89167 C 93.0000 % 13.77 C
867 21-06-2019 02:00:00 14.78333 C 94.3333 % 13.88 C
868 21-06-2019 03:00:00 15.06667 C 94.2500 % 14.15 C
869 21-06-2019 04:00:00 14.91667 C 94.1667 % 13.99 C
870 21-06-2019 05:00:00 14.325 C 93.9167 % 13.36 C
871 21-06-2019 06:00:00 14.175 C 93.4167 % 13.13 C
872 21-06-2019 07:00:00 14.63333 C 92.6667 % 13.46 C
873 21-06-2019 08:00:00 15.88333 C 79.4167 % 12.33 C
874 21-06-2019 09:00:00 16.7 C 73.2500 % 11.89 C
875 21-06-2019 10:00:00 18.28333 C 66.5000 % 11.94 C
Sensor: Nr:Datum:Temp:Feuchte:Taupunkt:
Aussen-T/F 876 21-06-2019 11:00:00 19.45 C 61.0000 % 11.74 C
877 21-06-2019 12:00:00 20.10833 C 58.2500 % 11.66 C
878 21-06-2019 13:00:00 21.3 C 52.6667 % 11.24 C
879 21-06-2019 14:00:00 22.03333 C 47.4167 % 10.34 C
880 21-06-2019 15:00:00 22.6 C 46.2500 % 10.48 C
881 21-06-2019 16:00:00 23.64167 C 43.2500 % 10.42 C
882 21-06-2019 17:00:00 25.125 C 39.5000 % 10.39 C
883 21-06-2019 18:00:00 24.95833 C 39.5000 % 10.24 C
884 21-06-2019 19:00:00 23.63333 C 42.8333 % 10.27 C
885 21-06-2019 20:00:00 22.15 C 47.1667 % 10.37 C
886 21-06-2019 21:00:00 19.375 C 57.1667 % 10.69 C
887 21-06-2019 22:00:00 16.6 C 66.4167 % 10.32 C
888 21-06-2019 23:00:00 15.23333 C 72.5000 % 10.33 C
889 22-06-2019 00:00:00 13.71667 C 79.0000 % 10.14 C
890 22-06-2019 01:00:00 13.01667 C 82.2500 % 10.06 C
891 22-06-2019 02:00:00 12.10833 C 85.6667 % 9.78 C
892 22-06-2019 03:00:00 11.5 C 88.5000 % 9.67 C
893 22-06-2019 04:00:00 11.05833 C 90.4167 % 9.55 C
894 22-06-2019 05:00:00 10.675 C 91.7500 % 9.39 C
895 22-06-2019 06:00:00 10.70833 C 93.0000 % 9.62 C
896 22-06-2019 07:00:00 11.80833 C 94.3333 % 10.93 C
897 22-06-2019 08:00:00 13.84167 C 90.5833 % 12.33 C
898 22-06-2019 09:00:00 16.275 C 79.8333 % 12.79 C
899 22-06-2019 10:00:00 19.475 C 67.1667 % 13.23 C
900 22-06-2019 11:00:00 21.21667 C 62.1667 % 13.69 C
Sensor: Nr:Datum:Temp:Feuchte:Taupunkt:
Aussen-T/F 901 22-06-2019 12:00:00 22.66667 C 59.5833 % 14.4 C
902 22-06-2019 13:00:00 24.175 C 55.6667 % 14.75 C
903 22-06-2019 14:00:00 25.025 C 53.9167 % 15.05 C
904 22-06-2019 15:00:00 25.59167 C 49.9167 % 14.37 C
905 22-06-2019 16:00:00 26.50833 C 47.1667 % 14.34 C
906 22-06-2019 17:00:00 26.26667 C 48.6667 % 14.6 C
907 22-06-2019 18:00:00 27.45 C 43.5000 % 13.94 C
908 22-06-2019 19:00:00 27.53333 C 43.7500 % 14.1 C
909 22-06-2019 20:00:00 26.95 C 48.1667 % 15.06 C
910 22-06-2019 21:00:00 23.525 C 62.3333 % 15.91 C
911 22-06-2019 22:00:00 20.3 C 73.0833 % 15.32 C
912 22-06-2019 23:00:00 18.63333 C 79.3333 % 14.99 C
913 23-06-2019 00:00:00 17.4 C 83.5000 % 14.58 C
914 23-06-2019 01:00:00 16.33333 C 86.9167 % 14.15 C
915 23-06-2019 02:00:00 15.64167 C 89.2500 % 13.88 C
916 23-06-2019 03:00:00 14.98333 C 91.0000 % 13.53 C
917 23-06-2019 04:00:00 14.53333 C 92.2500 % 13.29 C
918 23-06-2019 05:00:00 14.075 C 93.3333 % 13.02 C
919 23-06-2019 06:00:00 14.20833 C 94.1667 % 13.28 C
920 23-06-2019 07:00:00 14.74167 C 94.9167 % 13.94 C
921 23-06-2019 08:00:00 16.09167 C 94.5833 % 15.22 C
922 23-06-2019 09:00:00 18.65833 C 86.5000 % 16.36 C
923 23-06-2019 10:00:00 22.525 C 69.0000 % 16.55 C
924 23-06-2019 11:00:00 24.14167 C 64.3333 % 16.99 C
925 23-06-2019 12:00:00 25.21667 C 61.5000 % 17.29 C
Sensor: Nr:Datum:Temp:Feuchte:Taupunkt:
Aussen-T/F 926 23-06-2019 13:00:00 26.58333 C 56.0000 % 17.09 C
927 23-06-2019 14:00:00 27.84167 C 51.0833 % 16.8 C
928 23-06-2019 15:00:00 28.575 C 48.2500 % 16.57 C
929 23-06-2019 16:00:00 30.24167 C 43.1667 % 16.33 C
930 23-06-2019 17:00:00 30.6 C 43.1667 % 16.65 C
931 23-06-2019 18:00:00 30.3 C 44.1667 % 16.74 C
932 23-06-2019 19:00:00 29.025 C 50.3333 % 17.65 C
933 23-06-2019 20:00:00 25.85833 C 62.0000 % 18.02 C
934 23-06-2019 21:00:00 23.39167 C 67.6667 % 17.07 C
935 23-06-2019 22:00:00 21.70833 C 72.3333 % 16.51 C
936 23-06-2019 23:00:00 20.25 C 77.8333 % 16.26 C
937 24-06-2019 00:00:00 19.11667 C 82.1667 % 16 C
938 24-06-2019 01:00:00 18.43333 C 84.3333 % 15.74 C
939 24-06-2019 02:00:00 17.54167 C 87.0833 % 15.37 C
940 24-06-2019 03:00:00 16.95833 C 89.0833 % 15.15 C
941 24-06-2019 04:00:00 16.55 C 90.6667 % 15.02 C
942 24-06-2019 05:00:00 16.40833 C 92.0833 % 15.12 C
943 24-06-2019 06:00:00 16.70833 C 92.9167 % 15.56 C
944 24-06-2019 07:00:00 17.45 C 92.9167 % 16.29 C
945 24-06-2019 08:00:00 18.55 C 91.7500 % 17.18 C
946 24-06-2019 09:00:00 21.25833 C 84.6667 % 18.57 C
947 24-06-2019 10:00:00 25.475 C 67.0833 % 18.92 C
948 24-06-2019 11:00:00 26.95833 C 59.6667 % 18.44 C
949 24-06-2019 12:00:00 27.88333 C 55.5000 % 18.15 C
950 24-06-2019 13:00:00 29.05833 C 52.0000 % 18.2 C
Sensor: Nr:Datum:Temp:Feuchte:Taupunkt:
Aussen-T/F 951 24-06-2019 14:00:00 30.1 C 49.8333 % 18.48 C
952 24-06-2019 15:00:00 31.38333 C 46.8333 % 18.65 C
953 24-06-2019 16:00:00 32.73333 C 44.0000 % 18.87 C
954 24-06-2019 17:00:00 32.96667 C 44.5833 % 19.3 C
955 24-06-2019 18:00:00 33.1 C 44.0000 % 19.2 C
956 24-06-2019 19:00:00 32.375 C 45.5000 % 19.09 C
957 24-06-2019 20:00:00 30.64167 C 50.5000 % 19.18 C
958 24-06-2019 21:00:00 26.81667 C 63.7500 % 19.37 C
959 24-06-2019 22:00:00 23.99167 C 71.0000 % 18.41 C
960 24-06-2019 23:00:00 22.68333 C 74.0000 % 17.81 C
961 25-06-2019 00:00:00 21.4 C 77.5000 % 17.3 C
962 25-06-2019 01:00:00 20.425 C 80.8333 % 17.02 C
963 25-06-2019 02:00:00 19.35833 C 83.5833 % 16.51 C
964 25-06-2019 03:00:00 18.46667 C 85.5833 % 16.01 C
965 25-06-2019 04:00:00 17.825 C 88.0833 % 15.83 C
966 25-06-2019 05:00:00 17.51667 C 89.4167 % 15.76 C
967 25-06-2019 06:00:00 17.76667 C 90.8333 % 16.25 C
968 25-06-2019 07:00:00 18.44167 C 90.6667 % 16.89 C
969 25-06-2019 08:00:00 20.1 C 88.5000 % 18.14 C
970 25-06-2019 09:00:00 22.56667 C 81.7500 % 19.29 C
971 25-06-2019 10:00:00 26.46667 C 65.7500 % 19.54 C
972 25-06-2019 11:00:00 28.05833 C 59.2500 % 19.36 C
973 25-06-2019 12:00:00 29.51667 C 55.8333 % 19.76 C
974 25-06-2019 13:00:00 31.1 C 52.0000 % 20.08 C
975 25-06-2019 14:00:00 32.75833 C 46.9167 % 19.93 C
Sensor: Nr:Datum:Temp:Feuchte:Taupunkt:
Aussen-T/F 976 25-06-2019 15:00:00 34.91667 C 41.7500 % 19.99 C
977 25-06-2019 16:00:00 36.45833 C 38.0833 % 19.87 C
978 25-06-2019 17:00:00 37.69167 C 32.9167 % 18.61 C
979 25-06-2019 18:00:00 36.71667 C 36.7500 % 19.53 C
980 25-06-2019 19:00:00 34.225 C 48.5000 % 21.8 C
981 25-06-2019 20:00:00 31.78333 C 52.1667 % 20.76 C
982 25-06-2019 21:00:00 28.025 C 58.9167 % 19.24 C
983 25-06-2019 22:00:00 25.60833 C 64.0000 % 18.29 C
984 25-06-2019 23:00:00 24.15833 C 65.9167 % 17.39 C
985 26-06-2019 00:00:00 23.41667 C 69.5000 % 17.52 C
986 26-06-2019 01:00:00 22.38333 C 74.1667 % 17.56 C
987 26-06-2019 02:00:00 21.20833 C 79.0000 % 17.42 C
988 26-06-2019 03:00:00 20.575 C 81.9167 % 17.38 C
989 26-06-2019 04:00:00 19.825 C 84.4167 % 17.12 C
990 26-06-2019 05:00:00 19.475 C 86.5000 % 17.16 C
991 26-06-2019 06:00:00 19.575 C 87.8333 % 17.5 C
992 26-06-2019 07:00:00 20.29167 C 88.1667 % 18.27 C
993 26-06-2019 08:00:00 21.89167 C 87.8333 % 19.78 C
994 26-06-2019 09:00:00 24.64167 C 83.0000 % 21.56 C
995 26-06-2019 10:00:00 27.25 C 74.0833 % 22.22 C
996 26-06-2019 11:00:00 28.95 C 68.1667 % 22.48 C
997 26-06-2019 12:00:00 30.24167 C 62.8333 % 22.36 C
998 26-06-2019 13:00:00 31.63333 C 53.0833 % 20.9 C
999 26-06-2019 14:00:00 32.64167 C 50.5000 % 21.02 C
1000 26-06-2019 15:00:00 33.9 C 49.5833 % 21.87 C
Sensor: Nr:Datum:Temp:Feuchte:Taupunkt:
Aussen-T/F 1001 26-06-2019 16:00:00 34.76667 C 45.8333 % 21.37 C
1002 26-06-2019 17:00:00 34.76667 C 44.0000 % 20.7 C
1003 26-06-2019 18:00:00 34.36667 C 41.8333 % 19.53 C
1004 26-06-2019 19:00:00 33.36667 C 43.5833 % 19.29 C
1005 26-06-2019 20:00:00 30.94167 C 50.2500 % 19.38 C
1006 26-06-2019 21:00:00 28.8 C 56.5000 % 19.29 C
1007 26-06-2019 22:00:00 26.4 C 65.2500 % 19.35 C
1008 26-06-2019 23:00:00 26.03333 C 69.3333 % 19.98 C
1009 27-06-2019 00:00:00 25.24167 C 73.0000 % 20.05 C
1010 27-06-2019 01:00:00 24.11667 C 76.5000 % 19.72 C
1011 27-06-2019 02:00:00 23.25833 C 78.5000 % 19.31 C
1012 27-06-2019 03:00:00 22.41667 C 78.0000 % 18.39 C
1013 27-06-2019 04:00:00 21.66667 C 77.0000 % 17.46 C
1014 27-06-2019 05:00:00 20.54167 C 79.4167 % 16.86 C
1015 27-06-2019 06:00:00 20.01667 C 80.7500 % 16.61 C
1016 27-06-2019 07:00:00 20.03333 C 79.7500 % 16.43 C
1017 27-06-2019 08:00:00 20.6 C 77.5000 % 16.53 C
1018 27-06-2019 09:00:00 21.45833 C 74.0000 % 16.63 C
1019 27-06-2019 10:00:00 22.83333 C 68.0000 % 16.62 C
1020 27-06-2019 11:00:00 24.03333 C 62.0833 % 16.32 C
1021 27-06-2019 12:00:00 24.84167 C 58.9167 % 16.26 C
1022 27-06-2019 13:00:00 25.875 C 53.2500 % 15.64 C
1023 27-06-2019 14:00:00 26.98333 C 48.3333 % 15.15 C
1024 27-06-2019 15:00:00 28.6 C 41.0833 % 14.09 C
1025 27-06-2019 16:00:00 30.18333 C 32.4167 % 11.86 C
Sensor: Nr:Datum:Temp:Feuchte:Taupunkt:
Aussen-T/F 1026 27-06-2019 17:00:00 30.54167 C 28.0000 % 9.97 C
1027 27-06-2019 18:00:00 30.225 C 26.3333 % 8.79 C
1028 27-06-2019 19:00:00 29.59167 C 25.7500 % 7.92 C
1029 27-06-2019 20:00:00 27.43333 C 32.5000 % 9.51 C
1030 27-06-2019 21:00:00 24.48333 C 41.6667 % 10.62 C
1031 27-06-2019 22:00:00 21.28333 C 55.0000 % 11.88 C
1032 27-06-2019 23:00:00 19.9 C 60.8333 % 12.12 C
1033 28-06-2019 00:00:00 18.53333 C 66.0833 % 12.08 C
1034 28-06-2019 01:00:00 17.18333 C 71.6667 % 12.03 C
1035 28-06-2019 02:00:00 16.26667 C 76.5000 % 12.13 C
1036 28-06-2019 03:00:00 15.48333 C 80.2500 % 12.1 C
1037 28-06-2019 04:00:00 14.35 C 84.2500 % 11.73 C
1038 28-06-2019 05:00:00 13.51667 C 87.4167 % 11.47 C
1039 28-06-2019 06:00:00 13.35833 C 89.7500 % 11.71 C
1040 28-06-2019 07:00:00 13.86667 C 90.8333 % 12.4 C
1041 28-06-2019 08:00:00 15.39167 C 85.5000 % 12.97 C
1042 28-06-2019 09:00:00 17.7 C 74.9167 % 13.2 C
1043 28-06-2019 10:00:00 19.81667 C 67.4167 % 13.61 C
1044 28-06-2019 11:00:00 21.475 C 60.3333 % 13.47 C
1045 28-06-2019 12:00:00 22.84167 C 55.6667 % 13.51 C
1046 28-06-2019 13:00:00 24.66667 C 47.2500 % 12.69 C
1047 28-06-2019 14:00:00 26.31667 C 42.3333 % 12.5 C
1048 28-06-2019 15:00:00 28.225 C 38.5833 % 12.79 C
1049 28-06-2019 16:00:00 30.25 C 33.5833 % 12.46 C
1050 28-06-2019 17:00:00 31.13333 C 29.7500 % 11.38 C
Sensor: Nr:Datum:Temp:Feuchte:Taupunkt:
Aussen-T/F 1051 28-06-2019 18:00:00 31.66667 C 28.0000 % 10.93 C
1052 28-06-2019 19:00:00 31.2 C 30.0833 % 11.61 C
1053 28-06-2019 20:00:00 29.49167 C 36.8333 % 13.2 C
1054 28-06-2019 21:00:00 25.61667 C 48.1667 % 13.85 C
1055 28-06-2019 22:00:00 21.58333 C 54.6667 % 12.07 C
1056 28-06-2019 23:00:00 19.275 C 63.6667 % 12.22 C
1057 29-06-2019 00:00:00 18.40833 C 65.9167 % 11.93 C
1058 29-06-2019 01:00:00 17.83333 C 68.0833 % 11.87 C
1059 29-06-2019 02:00:00 17.09167 C 70.9167 % 11.78 C
1060 29-06-2019 03:00:00 16.39167 C 74.3333 % 11.82 C
1061 29-06-2019 04:00:00 15.175 C 78.5833 % 11.48 C
1062 29-06-2019 05:00:00 14.09167 C 82.7500 % 11.21 C
1063 29-06-2019 06:00:00 13.70833 C 85.5000 % 11.32 C
1064 29-06-2019 07:00:00 14.075 C 87.6667 % 12.06 C
1065 29-06-2019 08:00:00 15.26667 C 86.9167 % 13.1 C
1066 29-06-2019 09:00:00 19.2 C 71.5000 % 13.92 C
1067 29-06-2019 10:00:00 23.49167 C 55.0833 % 13.96 C
1068 29-06-2019 11:00:00 25.775 C 48.0000 % 13.94 C
1069 29-06-2019 12:00:00 27.41667 C 44.5833 % 14.29 C
1070 29-06-2019 13:00:00 29.11667 C 35.4167 % 12.28 C
1071 29-06-2019 14:00:00 30.58333 C 30.5000 % 11.29 C
1072 29-06-2019 15:00:00 32.63333 C 26.5000 % 10.92 C
1073 29-06-2019 16:00:00 34.24167 C 23.5000 % 10.47 C
1074 29-06-2019 17:00:00 35.325 C 22.2500 % 10.55 C
1075 29-06-2019 18:00:00 35.64167 C 22.5833 % 11.03 C
Sensor: Nr:Datum:Temp:Feuchte:Taupunkt:
Aussen-T/F 1076 29-06-2019 19:00:00 35.26667 C 23.4167 % 11.27 C
1077 29-06-2019 20:00:00 32.425 C 34.0833 % 14.58 C
1078 29-06-2019 21:00:00 27.60833 C 40.0833 % 12.83 C
1079 29-06-2019 22:00:00 24.225 C 45.4167 % 11.68 C
1080 29-06-2019 23:00:00 21.23333 C 57.4167 % 12.49 C
1081 30-06-2019 00:00:00 18.93333 C 65.8333 % 12.41 C
1082 30-06-2019 01:00:00 17.525 C 72.1667 % 12.46 C
1083 30-06-2019 02:00:00 16.75 C 75.5833 % 12.42 C
1084 30-06-2019 03:00:00 16.10833 C 78.7500 % 12.42 C
1085 30-06-2019 04:00:00 15.58333 C 81.3333 % 12.4 C
1086 30-06-2019 05:00:00 15.05 C 83.5833 % 12.29 C
1087 30-06-2019 06:00:00 14.85 C 86.5000 % 12.62 C
1088 30-06-2019 07:00:00 15.44167 C 87.8333 % 13.44 C
1089 30-06-2019 08:00:00 17.025 C 86.4167 % 14.74 C
1090 30-06-2019 09:00:00 19.65833 C 81.5833 % 16.42 C
1091 30-06-2019 10:00:00 25.225 C 64.7500 % 18.11 C
1092 30-06-2019 11:00:00 30.59167 C 45.2500 % 17.39 C
1093 30-06-2019 12:00:00 32.48333 C 40.0000 % 17.14 C
1094 30-06-2019 13:00:00 34.6 C 35.0000 % 16.89 C
1095 30-06-2019 14:00:00 36.00833 C 34.3333 % 17.82 C
1096 30-06-2019 15:00:00 35.5 C 40.7500 % 20.12 C
1097 30-06-2019 16:00:00 35.49167 C 45.0000 % 21.72 C
1098 30-06-2019 17:00:00 35.875 C 45.5833 % 22.28 C
1099 30-06-2019 18:00:00 34.975 C 46.3333 % 21.73 C
1100 30-06-2019 19:00:00 32.65833 C 50.6667 % 21.09 C
Sensor: Nr:Datum:Temp:Feuchte:Taupunkt:
Aussen-T/F 1101 30-06-2019 20:00:00 29.35 C 58.8333 % 20.45 C
1102 30-06-2019 21:00:00 27.18333 C 62.5000 % 19.4 C
1103 30-06-2019 22:00:00 26.25833 C 63.6667 % 18.82 C
1104 30-06-2019 23:00:00 24.55833 C 67.0000 % 18.02 C
1105 01-07-2019 00:00:00 22.68333 C 73.0833 % 17.61 C
1106 01-07-2019 01:00:00 22.36667 C 73.0833 % 17.31 C
1107 01-07-2019 02:00:00 21.63333 C 73.9167 % 16.78 C
1108 01-07-2019 03:00:00 20.98333 C 72.0833 % 15.76 C
1109 01-07-2019 04:00:00 20.34167 C 71.7500 % 15.07 C
1110 01-07-2019 05:00:00 19.65833 C 73.0833 % 14.7 C
1111 01-07-2019 06:00:00 19.68333 C 70.9167 % 14.26 C
1112 01-07-2019 07:00:00 19.675 C 70.9167 % 14.25 C
1113 01-07-2019 08:00:00 19.79167 C 70.6667 % 14.31 C
1114 01-07-2019 09:00:00 20.24167 C 69.2500 % 14.43 C
1115 01-07-2019 10:00:00 21.20833 C 68.8333 % 15.26 C
1116 01-07-2019 11:00:00 21.78333 C 69.2500 % 15.9 C
1117 01-07-2019 12:00:00 23.16667 C 62.7500 % 15.67 C
1118 01-07-2019 13:00:00 24.89167 C 50.9167 % 14.04 C
1119 01-07-2019 14:00:00 25.55833 C 51.1667 % 14.73 C
1120 01-07-2019 15:00:00 26.675 C 47.1667 % 14.49 C
1121 01-07-2019 16:00:00 26.89167 C 44.3333 % 13.73 C
1122 01-07-2019 17:00:00 27.04167 C 42.0833 % 13.06 C
1123 01-07-2019 18:00:00 26.3 C 44.0000 % 13.08 C
1124 01-07-2019 19:00:00 25.96667 C 42.7500 % 12.34 C
1125 01-07-2019 20:00:00 24.53333 C 46.6667 % 12.38 C
Sensor: Nr:Datum:Temp:Feuchte:Taupunkt:
Aussen-T/F 1126 01-07-2019 21:00:00 22.55833 C 51.1667 % 11.97 C
1127 01-07-2019 22:00:00 20.825 C 57.2500 % 12.06 C
1128 01-07-2019 23:00:00 20.03333 C 59.4167 % 11.89 C
1129 02-07-2019 00:00:00 18.85833 C 63.1667 % 11.71 C
1130 02-07-2019 01:00:00 16.89167 C 70.3333 % 11.46 C
1131 02-07-2019 02:00:00 15.85 C 74.3333 % 11.3 C
1132 02-07-2019 03:00:00 15.49167 C 75.2500 % 11.13 C
1133 02-07-2019 04:00:00 14.525 C 78.8333 % 10.9 C
1134 02-07-2019 05:00:00 13.45 C 83.2500 % 10.67 C
1135 02-07-2019 06:00:00 13.10833 C 85.5000 % 10.73 C
1136 02-07-2019 07:00:00 13.23333 C 87.0000 % 11.12 C
1137 02-07-2019 08:00:00 14.925 C 82.0000 % 11.88 C
1138 02-07-2019 09:00:00 17.48333 C 70.3333 % 12.03 C
1139 02-07-2019 10:00:00 19 C 62.7500 % 11.74 C
1140 02-07-2019 11:00:00 19.60833 C 60.5833 % 11.78 C
1141 02-07-2019 12:00:00 20.48333 C 55.0833 % 11.16 C
1142 02-07-2019 13:00:00 21.46667 C 51.4167 % 11.04 C
1143 02-07-2019 14:00:00 22.31667 C 49.1667 % 11.14 C
1144 02-07-2019 15:00:00 23.00833 C 47.5833 % 11.28 C
1145 02-07-2019 16:00:00 24.98333 C 40.2500 % 10.55 C
1146 02-07-2019 17:00:00 25.49167 C 38.5000 % 10.33 C
1147 02-07-2019 18:00:00 24.36667 C 41.3333 % 10.39 C
1148 02-07-2019 19:00:00 24.775 C 38.5833 % 9.73 C
1149 02-07-2019 20:00:00 22.95 C 41.7500 % 9.27 C
1150 02-07-2019 21:00:00 20.825 C 48.5833 % 9.6 C
Sensor: Nr:Datum:Temp:Feuchte:Taupunkt:
Aussen-T/F 1151 02-07-2019 22:00:00 17.64167 C 58.2500 % 9.35 C
1152 02-07-2019 23:00:00 16.3 C 62.2500 % 9.07 C
1153 03-07-2019 00:00:00 14.80833 C 68.0833 % 8.98 C
1154 03-07-2019 01:00:00 13.23333 C 73.7500 % 8.65 C
1155 03-07-2019 02:00:00 12.30833 C 77.2500 % 8.44 C
1156 03-07-2019 03:00:00 11.475 C 80.5000 % 8.24 C
1157 03-07-2019 04:00:00 10.65 C 83.2500 % 7.93 C
1158 03-07-2019 05:00:00 10.10833 C 85.8333 % 7.85 C
1159 03-07-2019 06:00:00 10.13333 C 88.0000 % 8.24 C
1160 03-07-2019 07:00:00 10.91667 C 88.6667 % 9.12 C
1161 03-07-2019 08:00:00 12.31667 C 86.1667 % 10.07 C
1162 03-07-2019 09:00:00 14.475 C 77.0000 % 10.5 C
1163 03-07-2019 10:00:00 18.01667 C 60.9167 % 10.37 C
1164 03-07-2019 11:00:00 19.95 C 50.8333 % 9.47 C
1165 03-07-2019 12:00:00 20.75833 C 48.7500 % 9.59 C
1166 03-07-2019 13:00:00 21.4 C 46.6667 % 9.52 C
1167 03-07-2019 14:00:00 21.975 C 46.3333 % 9.94 C
1168 03-07-2019 15:00:00 22.625 C 45.1667 % 10.15 C
1169 03-07-2019 16:00:00 24.44167 C 39.9167 % 9.94 C
1170 03-07-2019 17:00:00 24.56667 C 38.0833 % 9.35 C
1171 03-07-2019 18:00:00 24.70833 C 37.5000 % 9.25 C
1172 03-07-2019 19:00:00 23.79167 C 38.8333 % 8.95 C
1173 03-07-2019 20:00:00 22.35833 C 41.9167 % 8.8 C
1174 03-07-2019 21:00:00 20.40833 C 46.4167 % 8.54 C
1175 03-07-2019 22:00:00 17.54167 C 55.0833 % 8.43 C
Sensor: Nr:Datum:Temp:Feuchte:Taupunkt:
Aussen-T/F 1176 03-07-2019 23:00:00 15.46667 C 61.8333 % 8.19 C
1177 04-07-2019 00:00:00 14.2 C 65.9167 % 7.93 C
1178 04-07-2019 01:00:00 13.48333 C 68.0833 % 7.72 C
1179 04-07-2019 02:00:00 12.625 C 71.6667 % 7.65 C
1180 04-07-2019 03:00:00 11.24167 C 77.1667 % 7.39 C
1181 04-07-2019 04:00:00 10.78333 C 79.6667 % 7.42 C
1182 04-07-2019 05:00:00 10.51667 C 81.7500 % 7.53 C
1183 04-07-2019 06:00:00 10.28333 C 83.7500 % 7.66 C
1184 04-07-2019 07:00:00 10.55 C 86.0000 % 8.31 C
1185 04-07-2019 08:00:00 11.76667 C 83.9167 % 9.14 C
1186 04-07-2019 09:00:00 14.4 C 73.1667 % 9.66 C
1187 04-07-2019 10:00:00 18.125 C 56.0833 % 9.24 C
1188 04-07-2019 11:00:00 19.58333 C 49.0833 % 8.61 C
1189 04-07-2019 12:00:00 20.4 C 45.3333 % 8.19 C
1190 04-07-2019 13:00:00 21.63333 C 41.5833 % 8.03 C
1191 04-07-2019 14:00:00 22.71667 C 38.0000 % 7.68 C
1192 04-07-2019 15:00:00 24.7 C 33.5833 % 7.61 C
1193 04-07-2019 16:00:00 26.80833 C 31.4167 % 8.47 C
1194 04-07-2019 17:00:00 26.9 C 31.9167 % 8.78 C
1195 04-07-2019 18:00:00 27.35 C 30.7500 % 8.62 C
1196 04-07-2019 19:00:00 26.94167 C 31.6667 % 8.7 C
1197 04-07-2019 20:00:00 24.95 C 36.1667 % 8.92 C
1198 04-07-2019 21:00:00 21.60833 C 47.4167 % 9.95 C
1199 04-07-2019 22:00:00 18.56667 C 53.4167 % 8.93 C
1200 04-07-2019 23:00:00 17.39167 C 57.0000 % 8.79 C
Sensor: Nr:Datum:Temp:Feuchte:Taupunkt:
Aussen-T/F 1201 05-07-2019 00:00:00 16.41667 C 61.5000 % 9 C
1202 05-07-2019 01:00:00 15.18333 C 65.8333 % 8.84 C
1203 05-07-2019 02:00:00 14.13333 C 69.1667 % 8.57 C
1204 05-07-2019 03:00:00 13.70833 C 73.2500 % 9.01 C
1205 05-07-2019 04:00:00 14.08333 C 73.8333 % 9.49 C
1206 05-07-2019 05:00:00 13.75833 C 74.5833 % 9.33 C
1207 05-07-2019 06:00:00 13.93333 C 76.3333 % 9.84 C
1208 05-07-2019 07:00:00 14.55 C 75.4167 % 10.26 C
1209 05-07-2019 08:00:00 15.8 C 72.5833 % 10.89 C
1210 05-07-2019 09:00:00 17.29167 C 67.5833 % 11.24 C
1211 05-07-2019 10:00:00 20.225 C 58.6667 % 11.87 C
1212 05-07-2019 11:00:00 21.94167 C 53.1667 % 11.98 C
1213 05-07-2019 12:00:00 22.84167 C 50.2500 % 11.95 C
1214 05-07-2019 13:00:00 24.38333 C 45.4167 % 11.83 C
1215 05-07-2019 14:00:00 25.5 C 42.7500 % 11.92 C
1216 05-07-2019 15:00:00 27.45 C 37.8333 % 11.81 C
1217 05-07-2019 16:00:00 28.91667 C 34.8333 % 11.85 C
1218 05-07-2019 17:00:00 29.6 C 33.7500 % 11.97 C
1219 05-07-2019 18:00:00 29.41667 C 35.0000 % 12.36 C
1220 05-07-2019 19:00:00 27.68333 C 38.6667 % 12.35 C
1221 05-07-2019 20:00:00 26.10833 C 42.6667 % 12.44 C
1222 05-07-2019 21:00:00 23.225 C 52.6667 % 13.02 C
1223 05-07-2019 22:00:00 21.18333 C 58.7500 % 12.79 C
1224 05-07-2019 23:00:00 20.4 C 62.6667 % 13.04 C
1225 06-07-2019 00:00:00 18.45833 C 69.9167 % 12.87 C
Sensor: Nr:Datum:Temp:Feuchte:Taupunkt:
Aussen-T/F 1226 06-07-2019 01:00:00 17.60833 C 73.0833 % 12.73 C
1227 06-07-2019 02:00:00 17.05833 C 76.2500 % 12.85 C
1228 06-07-2019 03:00:00 16.875 C 77.5000 % 12.92 C
1229 06-07-2019 04:00:00 16.16667 C 79.6667 % 12.65 C
1230 06-07-2019 05:00:00 15.425 C 81.8333 % 12.34 C
1231 06-07-2019 06:00:00 15.18333 C 84.5833 % 12.61 C
1232 06-07-2019 07:00:00 15.18333 C 85.0833 % 12.7 C
1233 06-07-2019 08:00:00 16.78333 C 81.2500 % 13.55 C
1234 06-07-2019 09:00:00 19.425 C 71.6667 % 14.18 C
1235 06-07-2019 10:00:00 22.16667 C 62.5000 % 14.67 C
1236 06-07-2019 11:00:00 24.41667 C 52.9167 % 14.19 C
1237 06-07-2019 12:00:00 25.48333 C 50.0000 % 14.3 C
1238 06-07-2019 13:00:00 26.84167 C 43.5000 % 13.39 C
1239 06-07-2019 14:00:00 28.7 C 32.0833 % 10.42 C
1240 06-07-2019 15:00:00 30.95833 C 22.5833 % 7.15 C
1241 06-07-2019 16:00:00 29.08333 C 21.6667 % 5 C
1242 06-07-2019 17:00:00 27.89167 C 28.8333 % 8.14 C
1243 06-07-2019 18:00:00 22.825 C 51.7500 % 12.38 C
1244 06-07-2019 19:00:00 21.60833 C 55.9167 % 12.44 C
1245 06-07-2019 20:00:00 20.35833 C 64.4167 % 13.43 C
1246 06-07-2019 21:00:00 19.75833 C 66.8333 % 13.42 C
1247 06-07-2019 22:00:00 19.86667 C 71.1667 % 14.49 C
1248 06-07-2019 23:00:00 20.35833 C 71.4167 % 15.02 C
1249 07-07-2019 00:00:00 18.93333 C 74.1667 % 14.23 C
1250 07-07-2019 01:00:00 17.88333 C 77.4167 % 13.88 C
Sensor: Nr:Datum:Temp:Feuchte:Taupunkt:
Aussen-T/F 1251 07-07-2019 02:00:00 17.33333 C 74.5000 % 12.76 C
1252 07-07-2019 03:00:00 17 C 75.5833 % 12.66 C
1253 07-07-2019 04:00:00 16.825 C 75.8333 % 12.54 C
1254 07-07-2019 05:00:00 16.35 C 79.9167 % 12.88 C
1255 07-07-2019 06:00:00 14.99167 C 89.7500 % 13.32 C
1256 07-07-2019 07:00:00 14.65 C 92.9167 % 13.52 C
1257 07-07-2019 08:00:00 14.28333 C 93.7500 % 13.29 C
1258 07-07-2019 09:00:00 14.78333 C 94.1667 % 13.85 C
1259 07-07-2019 10:00:00 15.38333 C 86.1667 % 13.08 C
1260 07-07-2019 11:00:00 16.50833 C 75.4167 % 12.15 C
1261 07-07-2019 12:00:00 17.73333 C 67.5833 % 11.66 C
1262 07-07-2019 13:00:00 18.5 C 62.4167 % 11.19 C
1263 07-07-2019 14:00:00 19.25833 C 55.6667 % 10.18 C
1264 07-07-2019 15:00:00 20.91667 C 48.5000 % 9.66 C
1265 07-07-2019 16:00:00 21.78333 C 43.6667 % 8.89 C
1266 07-07-2019 17:00:00 21.475 C 44.0833 % 8.75 C
1267 07-07-2019 18:00:00 21.775 C 44.4167 % 9.13 C
1268 07-07-2019 19:00:00 21.325 C 44.5000 % 8.75 C
1269 07-07-2019 20:00:00 20 C 48.0000 % 8.67 C
1270 07-07-2019 21:00:00 18.65 C 52.5833 % 8.77 C
1271 07-07-2019 22:00:00 15.64167 C 66.2500 % 9.37 C
1272 07-07-2019 23:00:00 13.85 C 73.9167 % 9.28 C
1273 08-07-2019 00:00:00 12.875 C 77.5000 % 9.04 C
1274 08-07-2019 01:00:00 11.89167 C 81.2500 % 8.78 C
1275 08-07-2019 02:00:00 11.05 C 83.7500 % 8.41 C
Sensor: Nr:Datum:Temp:Feuchte:Taupunkt:
Aussen-T/F 1276 08-07-2019 03:00:00 10.94167 C 83.5000 % 8.26 C
1277 08-07-2019 04:00:00 10.78333 C 83.9167 % 8.18 C
1278 08-07-2019 05:00:00 9.89167 C 86.7500 % 7.79 C
1279 08-07-2019 06:00:00 9.55833 C 89.5833 % 7.93 C
1280 08-07-2019 07:00:00 9.975 C 91.0000 % 8.58 C
1281 08-07-2019 08:00:00 11.225 C 90.0833 % 9.66 C
1282 08-07-2019 09:00:00 14.18333 C 73.8333 % 9.59 C
1283 08-07-2019 10:00:00 15.65833 C 62.6667 % 8.57 C
1284 08-07-2019 11:00:00 16.14167 C 61.8333 % 8.82 C
1285 08-07-2019 12:00:00 16.68333 C 59.5833 % 8.79 C
1286 08-07-2019 13:00:00 17.05833 C 58.1667 % 8.78 C
1287 08-07-2019 14:00:00 17.33333 C 57.6667 % 8.91 C
1288 08-07-2019 15:00:00 17.49167 C 57.8333 % 9.1 C
1289 08-07-2019 16:00:00 18.025 C 57.0000 % 9.39 C
1290 08-07-2019 17:00:00 18.16667 C 57.1667 % 9.56 C
1291 08-07-2019 18:00:00 18.04167 C 57.2500 % 9.47 C
1292 08-07-2019 19:00:00 17.75833 C 58.0833 % 9.42 C
1293 08-07-2019 20:00:00 17.69167 C 58.5000 % 9.46 C
1294 08-07-2019 21:00:00 16.26667 C 65.0833 % 9.7 C
1295 08-07-2019 22:00:00 13.975 C 74.8333 % 9.59 C
1296 08-07-2019 23:00:00 14.11667 C 75.4167 % 9.84 C
1297 09-07-2019 00:00:00 13.29167 C 79.3333 % 9.79 C
1298 09-07-2019 01:00:00 12.7 C 81.4167 % 9.6 C
1299 09-07-2019 02:00:00 11.88333 C 83.8333 % 9.24 C
1300 09-07-2019 03:00:00 11.11667 C 87.1667 % 9.07 C
Sensor: Nr:Datum:Temp:Feuchte:Taupunkt:
Aussen-T/F 1301 09-07-2019 04:00:00 10.43333 C 88.3333 % 8.59 C
1302 09-07-2019 05:00:00 9.80833 C 90.1667 % 8.28 C
1303 09-07-2019 06:00:00 9.725 C 91.2500 % 8.37 C
1304 09-07-2019 07:00:00 10.91667 C 90.6667 % 9.45 C
1305 09-07-2019 08:00:00 12.98333 C 81.4167 % 9.88 C
1306 09-07-2019 09:00:00 14.2 C 75.8333 % 10 C
1307 09-07-2019 10:00:00 14.9 C 70.6667 % 9.62 C
1308 09-07-2019 11:00:00 16.09167 C 60.4167 % 8.44 C
1309 09-07-2019 12:00:00 16.86667 C 56.6667 % 8.22 C
1310 09-07-2019 13:00:00 17.68333 C 52.4167 % 7.83 C
1311 09-07-2019 14:00:00 18.6 C 49.1667 % 7.74 C
1312 09-07-2019 15:00:00 19.73333 C 45.9167 % 7.77 C
1313 09-07-2019 16:00:00 20.475 C 43.7500 % 7.73 C
1314 09-07-2019 17:00:00 21.725 C 39.5000 % 7.36 C
1315 09-07-2019 18:00:00 21.06667 C 39.7500 % 6.86 C
1316 09-07-2019 19:00:00 20.98333 C 40.7500 % 7.15 C
1317 09-07-2019 20:00:00 19.525 C 46.5000 % 7.76 C
1318 09-07-2019 21:00:00 17.04167 C 56.8333 % 8.42 C
1319 09-07-2019 22:00:00 14.95 C 62.5000 % 7.86 C
1320 09-07-2019 23:00:00 13.10833 C 71.8333 % 8.15 C
1321 10-07-2019 00:00:00 12.05 C 75.0833 % 7.78 C
1322 10-07-2019 01:00:00 11.01667 C 78.0000 % 7.33 C
1323 10-07-2019 02:00:00 10.01667 C 81.1667 % 6.94 C
1324 10-07-2019 03:00:00 9.05 C 84.6667 % 6.61 C
1325 10-07-2019 04:00:00 8.5 C 87.0000 % 6.46 C
Sensor: Nr:Datum:Temp:Feuchte:Taupunkt:
Aussen-T/F 1326 10-07-2019 05:00:00 8.23333 C 88.5833 % 6.46 C
1327 10-07-2019 06:00:00 8.10833 C 89.7500 % 6.53 C
1328 10-07-2019 07:00:00 8.46667 C 90.5833 % 7.02 C
1329 10-07-2019 08:00:00 10 C 90.1667 % 8.46 C
1330 10-07-2019 09:00:00 12.49167 C 81.8333 % 9.48 C
1331 10-07-2019 10:00:00 16.09167 C 68.5000 % 10.3 C
1332 10-07-2019 11:00:00 18.40833 C 54.5833 % 9.1 C
1333 10-07-2019 12:00:00 19.80833 C 42.6667 % 6.77 C
1334 10-07-2019 13:00:00 21.15833 C 35.4167 % 5.28 C
1335 10-07-2019 14:00:00 22.70833 C 30.8333 % 4.65 C
1336 10-07-2019 15:00:00 24.41667 C 28.2500 % 4.87 C
1337 10-07-2019 16:00:00 25.66667 C 26.6667 % 5.11 C
1338 10-07-2019 17:00:00 26.63333 C 25.4167 % 5.24 C
1339 10-07-2019 18:00:00 26.76667 C 25.7500 % 5.54 C
1340 10-07-2019 19:00:00 25.75 C 28.0833 % 5.92 C
1341 10-07-2019 20:00:00 23.525 C 33.6667 % 6.62 C
1342 10-07-2019 21:00:00 20.74167 C 43.3333 % 7.83 C
1343 10-07-2019 22:00:00 19.21667 C 48.2500 % 8.03 C
1344 10-07-2019 23:00:00 18.9 C 52.0000 % 8.84 C
1345 11-07-2019 00:00:00 19.10833 C 54.4167 % 9.7 C
1346 11-07-2019 01:00:00 17.8 C 61.0833 % 10.21 C
1347 11-07-2019 02:00:00 17.175 C 65.8333 % 10.74 C
1348 11-07-2019 03:00:00 16.875 C 70.1667 % 11.41 C
1349 11-07-2019 04:00:00 16.59167 C 72.6667 % 11.67 C
1350 11-07-2019 05:00:00 16.34167 C 73.1667 % 11.53 C
Sensor: Nr:Datum:Temp:Feuchte:Taupunkt:
Aussen-T/F 1351 11-07-2019 06:00:00 16.39167 C 74.2500 % 11.8 C
1352 11-07-2019 07:00:00 17.23333 C 71.7500 % 12.09 C
1353 11-07-2019 08:00:00 17.85833 C 69.0000 % 12.1 C
1354 11-07-2019 09:00:00 18.675 C 68.5000 % 12.77 C
1355 11-07-2019 10:00:00 18.7 C 70.6667 % 13.27 C
1356 11-07-2019 11:00:00 18.9 C 69.5000 % 13.2 C
1357 11-07-2019 12:00:00 17.35 C 81.9167 % 14.23 C
1358 11-07-2019 13:00:00 16.31667 C 90.8333 % 14.82 C
1359 11-07-2019 14:00:00 16.79167 C 92.7500 % 15.61 C
1360 11-07-2019 15:00:00 17.575 C 92.5000 % 16.35 C
1361 11-07-2019 16:00:00 19.11667 C 89.3333 % 17.32 C
1362 11-07-2019 17:00:00 20.88333 C 84.5000 % 18.17 C
1363 11-07-2019 18:00:00 19.50833 C 90.0833 % 17.84 C
1364 11-07-2019 19:00:00 18.3 C 93.0833 % 17.16 C
1365 11-07-2019 20:00:00 18.04167 C 94.0000 % 17.06 C
1366 11-07-2019 21:00:00 17.44167 C 94.0000 % 16.47 C
1367 11-07-2019 22:00:00 16.85 C 94.9167 % 16.03 C
1368 11-07-2019 23:00:00 16.43333 C 95.0833 % 15.64 C
1369 12-07-2019 00:00:00 16.05 C 96.0000 % 15.41 C
1370 12-07-2019 01:00:00 15.70833 C 96.0000 % 15.07 C
1371 12-07-2019 02:00:00 15.34167 C 96.0000 % 14.71 C
1372 12-07-2019 03:00:00 15.31667 C 96.5000 % 14.76 C
1373 12-07-2019 04:00:00 14.93333 C 96.4167 % 14.37 C
1374 12-07-2019 05:00:00 14.58333 C 97.0000 % 14.11 C
1375 12-07-2019 06:00:00 14.75833 C 97.0000 % 14.29 C
Sensor: Nr:Datum:Temp:Feuchte:Taupunkt:
Aussen-T/F 1376 12-07-2019 07:00:00 15.73333 C 97.1667 % 15.29 C
1377 12-07-2019 08:00:00 16.45833 C 97.0833 % 15.99 C
1378 12-07-2019 09:00:00 17.45 C 97.4167 % 17.04 C
1379 12-07-2019 10:00:00 18.78333 C 95.0000 % 17.97 C
1380 12-07-2019 11:00:00 20.325 C 88.7500 % 18.41 C
1381 12-07-2019 12:00:00 19.04167 C 91.7500 % 17.67 C
1382 12-07-2019 13:00:00 17.98333 C 94.2500 % 17.05 C
1383 12-07-2019 14:00:00 17.70833 C 94.1667 % 16.76 C
1384 12-07-2019 15:00:00 19.6 C 89.0833 % 17.75 C
1385 12-07-2019 16:00:00 20.76667 C 86.8333 % 18.49 C
1386 12-07-2019 17:00:00 19.975 C 79.9167 % 16.4 C
1387 12-07-2019 18:00:00 18.30833 C 84.9167 % 15.73 C
1388 12-07-2019 19:00:00 17.55833 C 87.6667 % 15.49 C
1389 12-07-2019 20:00:00 18.23333 C 88.2500 % 16.26 C
1390 12-07-2019 21:00:00 17.63333 C 87.0000 % 15.44 C
1391 12-07-2019 22:00:00 17.3 C 86.2500 % 14.98 C
1392 12-07-2019 23:00:00 16.55 C 88.3333 % 14.61 C
1393 13-07-2019 00:00:00 16.34167 C 86.6667 % 14.11 C
1394 13-07-2019 01:00:00 16.13333 C 89.9167 % 14.48 C
1395 13-07-2019 02:00:00 15.51667 C 94.0000 % 14.56 C
1396 13-07-2019 03:00:00 15.175 C 94.9167 % 14.37 C
1397 13-07-2019 04:00:00 14.99167 C 95.0833 % 14.21 C
1398 13-07-2019 05:00:00 14.90833 C 96.0000 % 14.28 C
1399 13-07-2019 06:00:00 14.75 C 96.0000 % 14.12 C
1400 13-07-2019 07:00:00 14.93333 C 96.1667 % 14.33 C
Sensor: Nr:Datum:Temp:Feuchte:Taupunkt:
Aussen-T/F 1401 13-07-2019 08:00:00 15.61667 C 96.1667 % 15.01 C
1402 13-07-2019 09:00:00 15.83333 C 95.5000 % 15.12 C
1403 13-07-2019 10:00:00 16.5 C 91.0000 % 15.03 C
1404 13-07-2019 11:00:00 17.51667 C 88.3333 % 15.57 C
1405 13-07-2019 12:00:00 18.75833 C 81.5000 % 15.53 C
1406 13-07-2019 13:00:00 19.725 C 75.9167 % 15.36 C
1407 13-07-2019 14:00:00 21.15 C 69.2500 % 15.3 C
1408 13-07-2019 15:00:00 21.18333 C 71.0833 % 15.74 C
1409 13-07-2019 16:00:00 20.90833 C 68.9167 % 14.99 C
1410 13-07-2019 17:00:00 21.84167 C 67.1667 % 15.48 C
1411 13-07-2019 18:00:00 22.38333 C 64.2500 % 15.3 C
1412 13-07-2019 19:00:00 22.70833 C 63.0000 % 15.3 C
1413 13-07-2019 20:00:00 20.45833 C 70.1667 % 14.84 C
1414 13-07-2019 21:00:00 19.2 C 77.2500 % 15.12 C
1415 13-07-2019 22:00:00 18.225 C 85.0833 % 15.68 C
1416 13-07-2019 23:00:00 17.21667 C 89.5833 % 15.49 C
1417 14-07-2019 00:00:00 16.95 C 89.7500 % 15.26 C
1418 14-07-2019 01:00:00 16.975 C 88.5833 % 15.08 C
1419 14-07-2019 02:00:00 16.35833 C 89.6667 % 14.66 C
1420 14-07-2019 03:00:00 15.44167 C 90.9167 % 13.97 C
1421 14-07-2019 04:00:00 15.11667 C 90.9167 % 13.64 C
1422 14-07-2019 05:00:00 14.85 C 90.2500 % 13.27 C
1423 14-07-2019 06:00:00 14.71667 C 90.9167 % 13.25 C
1424 14-07-2019 07:00:00 14.86667 C 86.8333 % 12.69 C
1425 14-07-2019 08:00:00 15.40833 C 85.3333 % 12.96 C
Sensor: Nr:Datum:Temp:Feuchte:Taupunkt:
Aussen-T/F 1426 14-07-2019 09:00:00 15.26667 C 84.1667 % 12.61 C
1427 14-07-2019 10:00:00 16.00833 C 77.7500 % 12.13 C
1428 14-07-2019 11:00:00 16.83333 C 73.1667 % 12 C
1429 14-07-2019 12:00:00 17.53333 C 69.4167 % 11.88 C
1430 14-07-2019 13:00:00 17.80833 C 66.8333 % 11.57 C
1431 14-07-2019 14:00:00 18.19167 C 64.3333 % 11.35 C
1432 14-07-2019 15:00:00 18.925 C 61.0833 % 11.26 C
1433 14-07-2019 16:00:00 19.33333 C 58.8333 % 11.08 C
1434 14-07-2019 17:00:00 19.34167 C 58.5833 % 11.03 C
1435 14-07-2019 18:00:00 18.65833 C 61.8333 % 11.2 C
1436 14-07-2019 19:00:00 18.36667 C 62.0000 % 10.96 C
1437 14-07-2019 20:00:00 17.89167 C 66.0000 % 11.46 C
1438 14-07-2019 21:00:00 17.45 C 67.4167 % 11.36 C
1439 14-07-2019 22:00:00 17.125 C 68.0833 % 11.19 C
1440 14-07-2019 23:00:00 16.8 C 71.0833 % 11.53 C
1441 15-07-2019 00:00:00 16.06667 C 76.7500 % 11.99 C
1442 15-07-2019 01:00:00 15.63333 C 78.7500 % 11.96 C
1443 15-07-2019 02:00:00 15.55833 C 80.3333 % 12.19 C
1444 15-07-2019 03:00:00 14.99167 C 83.5000 % 12.22 C
1445 15-07-2019 04:00:00 15.30833 C 78.2500 % 11.55 C
1446 15-07-2019 05:00:00 15.65 C 74.4167 % 11.12 C
1447 15-07-2019 06:00:00 15.6 C 74.1667 % 11.02 C
1448 15-07-2019 07:00:00 15.69167 C 74.0000 % 11.07 C
1449 15-07-2019 08:00:00 15.83333 C 74.0833 % 11.23 C
1450 15-07-2019 09:00:00 16.53333 C 71.4167 % 11.35 C
Sensor: Nr:Datum:Temp:Feuchte:Taupunkt:
Aussen-T/F 1451 15-07-2019 10:00:00 16.8 C 72.1667 % 11.76 C
1452 15-07-2019 11:00:00 16.84167 C 74.4167 % 12.27 C
1453 15-07-2019 12:00:00 17.10833 C 72.8333 % 12.2 C
1454 15-07-2019 13:00:00 17.49167 C 69.7500 % 11.91 C
1455 15-07-2019 14:00:00 18.09167 C 66.3333 % 11.72 C
1456 15-07-2019 15:00:00 17.68333 C 67.9167 % 11.69 C
1457 15-07-2019 16:00:00 17.11667 C 70.5000 % 11.71 C
1458 15-07-2019 17:00:00 16.775 C 71.6667 % 11.63 C
1459 15-07-2019 18:00:00 16.69167 C 71.5833 % 11.54 C
1460 15-07-2019 19:00:00 16.78333 C 71.0000 % 11.5 C
1461 15-07-2019 20:00:00 16.69167 C 71.0833 % 11.43 C
1462 15-07-2019 21:00:00 16.34167 C 73.9167 % 11.68 C
1463 15-07-2019 22:00:00 15.61667 C 79.5000 % 12.09 C
1464 15-07-2019 23:00:00 15.44167 C 77.2500 % 11.48 C
1465 16-07-2019 00:00:00 14.75 C 79.8333 % 11.31 C
1466 16-07-2019 01:00:00 13.675 C 80.3333 % 10.35 C
1467 16-07-2019 02:00:00 12.23333 C 85.5000 % 9.88 C
1468 16-07-2019 03:00:00 10.9 C 90.2500 % 9.37 C
1469 16-07-2019 04:00:00 10.28333 C 92.2500 % 9.08 C
1470 16-07-2019 05:00:00 9.98333 C 93.1667 % 8.93 C
1471 16-07-2019 06:00:00 10.125 C 94.4167 % 9.27 C
1472 16-07-2019 07:00:00 11.01667 C 93.7500 % 10.05 C
1473 16-07-2019 08:00:00 12.625 C 90.7500 % 11.15 C
1474 16-07-2019 09:00:00 14.58333 C 84.1667 % 11.94 C
1475 16-07-2019 10:00:00 15.51667 C 77.5000 % 11.6 C
Sensor: Nr:Datum:Temp:Feuchte:Taupunkt:
Aussen-T/F 1476 16-07-2019 11:00:00 15.99167 C 74.6667 % 11.5 C
1477 16-07-2019 12:00:00 16.725 C 71.8333 % 11.62 C
1478 16-07-2019 13:00:00 17.40833 C 69.4167 % 11.76 C
1479 16-07-2019 14:00:00 18.38333 C 66.5000 % 12.04 C
1480 16-07-2019 15:00:00 20.325 C 60.9167 % 12.54 C
1481 16-07-2019 16:00:00 22.31667 C 54.8333 % 12.8 C
1482 16-07-2019 17:00:00 22.8 C 53.0833 % 12.75 C
1483 16-07-2019 18:00:00 23.075 C 52.0000 % 12.69 C
1484 16-07-2019 19:00:00 22.125 C 54.1667 % 12.43 C
1485 16-07-2019 20:00:00 20.81667 C 58.3333 % 12.34 C
1486 16-07-2019 21:00:00 18.30833 C 70.1667 % 12.78 C
1487 16-07-2019 22:00:00 15.85 C 78.8333 % 12.18 C
1488 16-07-2019 23:00:00 15.08333 C 81.7500 % 11.99 C
1489 17-07-2019 00:00:00 14.09167 C 84.3333 % 11.49 C
1490 17-07-2019 01:00:00 13.08333 C 88.2500 % 11.19 C
1491 17-07-2019 02:00:00 12.40833 C 89.7500 % 10.77 C
1492 17-07-2019 03:00:00 11.64167 C 91.5833 % 10.32 C
1493 17-07-2019 04:00:00 11.225 C 92.8333 % 10.11 C
1494 17-07-2019 05:00:00 10.83333 C 93.7500 % 9.87 C
1495 17-07-2019 06:00:00 10.74167 C 94.5000 % 9.9 C
1496 17-07-2019 07:00:00 11.51667 C 95.0833 % 10.76 C
1497 17-07-2019 08:00:00 12.79167 C 94.5000 % 11.93 C
1498 17-07-2019 09:00:00 14.85833 C 88.5833 % 12.99 C
1499 17-07-2019 10:00:00 17.23333 C 77.4167 % 13.25 C
1500 17-07-2019 11:00:00 18.58333 C 71.6667 % 13.37 C
Sensor: Nr:Datum:Temp:Feuchte:Taupunkt:
Aussen-T/F 1501 17-07-2019 12:00:00 19.39167 C 68.7500 % 13.51 C
1502 17-07-2019 13:00:00 20.5 C 62.9167 % 13.2 C
1503 17-07-2019 14:00:00 21.69167 C 58.9167 % 13.31 C
1504 17-07-2019 15:00:00 22.69167 C 58.0000 % 14.01 C
1505 17-07-2019 16:00:00 23.675 C 54.9167 % 14.08 C
1506 17-07-2019 17:00:00 24.575 C 53.0000 % 14.36 C
1507 17-07-2019 18:00:00 24.24167 C 54.1667 % 14.39 C
1508 17-07-2019 19:00:00 23.20833 C 58.5000 % 14.62 C
1509 17-07-2019 20:00:00 21.525 C 64.2500 % 14.49 C
1510 17-07-2019 21:00:00 19.69167 C 70.6667 % 14.22 C
1511 17-07-2019 22:00:00 17.05 C 80.0000 % 13.58 C
1512 17-07-2019 23:00:00 16.025 C 84.5000 % 13.41 C
1513 18-07-2019 00:00:00 15.29167 C 86.0833 % 12.98 C
1514 18-07-2019 01:00:00 14.29167 C 88.5000 % 12.42 C
1515 18-07-2019 02:00:00 13.69167 C 91.2500 % 12.29 C
1516 18-07-2019 03:00:00 13.45833 C 92.2500 % 12.23 C
1517 18-07-2019 04:00:00 13.24167 C 92.9167 % 12.12 C
1518 18-07-2019 05:00:00 12.675 C 93.0833 % 11.59 C
1519 18-07-2019 06:00:00 12.45833 C 94.3333 % 11.57 C
1520 18-07-2019 07:00:00 13.25833 C 95.0000 % 12.48 C
1521 18-07-2019 08:00:00 14.31667 C 93.1667 % 13.23 C
1522 18-07-2019 09:00:00 16.21667 C 89.0833 % 14.42 C
1523 18-07-2019 10:00:00 18.83333 C 81.3333 % 15.57 C
1524 18-07-2019 11:00:00 21.89167 C 64.4167 % 14.88 C
1525 18-07-2019 12:00:00 24.18333 C 54.1667 % 14.34 C
Sensor: Nr:Datum:Temp:Feuchte:Taupunkt:
Aussen-T/F 1526 18-07-2019 13:00:00 25.71667 C 49.0833 % 14.23 C
1527 18-07-2019 14:00:00 27.20833 C 41.0833 % 12.85 C
1528 18-07-2019 15:00:00 26.04167 C 44.9167 % 13.16 C
1529 18-07-2019 16:00:00 24.76667 C 52.4167 % 14.37 C
1530 18-07-2019 17:00:00 24.84167 C 56.0833 % 15.49 C
1531 18-07-2019 18:00:00 23.975 C 62.7500 % 16.44 C
1532 18-07-2019 19:00:00 21.06667 C 74.2500 % 16.31 C
1533 18-07-2019 20:00:00 20.86667 C 70.0000 % 15.19 C
1534 18-07-2019 21:00:00 20.35 C 69.0833 % 14.49 C
1535 18-07-2019 22:00:00 19.66667 C 71.6667 % 14.41 C
1536 18-07-2019 23:00:00 19.35833 C 72.5000 % 14.29 C
1537 19-07-2019 00:00:00 19.33333 C 74.0833 % 14.6 C
1538 19-07-2019 01:00:00 18.45833 C 82.4167 % 15.41 C
1539 19-07-2019 02:00:00 17.05833 C 89.9167 % 15.39 C
1540 19-07-2019 03:00:00 16.60833 C 92.3333 % 15.36 C
1541 19-07-2019 04:00:00 16.375 C 93.4167 % 15.31 C
1542 19-07-2019 05:00:00 16.3 C 94.1667 % 15.36 C
1543 19-07-2019 06:00:00 16.35 C 95.0000 % 15.55 C
1544 19-07-2019 07:00:00 16.7 C 95.2500 % 15.94 C
1545 19-07-2019 08:00:00 17.23333 C 96.0000 % 16.59 C
1546 19-07-2019 09:00:00 18.025 C 94.8333 % 17.18 C
1547 19-07-2019 10:00:00 19.275 C 90.3333 % 17.65 C
1548 19-07-2019 11:00:00 20.475 C 83.6667 % 17.62 C
1549 19-07-2019 12:00:00 20.04167 C 86.1667 % 17.66 C
1550 19-07-2019 13:00:00 21.975 C 74.8333 % 17.31 C
Sensor: Nr:Datum:Temp:Feuchte:Taupunkt:
Aussen-T/F 1551 19-07-2019 14:00:00 23.525 C 60.9167 % 15.55 C
1552 19-07-2019 15:00:00 24.875 C 52.8333 % 14.59 C
1553 19-07-2019 16:00:00 25.21667 C 50.5833 % 14.23 C
1554 19-07-2019 17:00:00 25.91667 C 49.5833 % 14.57 C
1555 19-07-2019 18:00:00 25.43333 C 51.0833 % 14.59 C
1556 19-07-2019 19:00:00 24.78333 C 60.1667 % 16.54 C
1557 19-07-2019 20:00:00 23.25833 C 64.2500 % 16.13 C
1558 19-07-2019 21:00:00 20.90833 C 71.5833 % 15.58 C
1559 19-07-2019 22:00:00 19.20833 C 79.0833 % 15.5 C
1560 19-07-2019 23:00:00 18.525 C 82.9167 % 15.57 C
1561 20-07-2019 00:00:00 17.39167 C 86.1667 % 15.06 C
1562 20-07-2019 01:00:00 16.6 C 88.2500 % 14.65 C
1563 20-07-2019 02:00:00 15.74167 C 90.5000 % 14.19 C
1564 20-07-2019 03:00:00 15.025 C 92.4167 % 13.81 C
1565 20-07-2019 04:00:00 14.55833 C 93.4167 % 13.51 C
1566 20-07-2019 05:00:00 14.18333 C 94.0833 % 13.25 C
1567 20-07-2019 06:00:00 13.96667 C 94.9167 % 13.17 C
1568 20-07-2019 07:00:00 14.56667 C 95.7500 % 13.9 C
1569 20-07-2019 08:00:00 15.86667 C 96.0000 % 15.23 C
1570 20-07-2019 09:00:00 17.73333 C 94.8333 % 16.89 C
1571 20-07-2019 10:00:00 21.4 C 87.2500 % 19.19 C
1572 20-07-2019 11:00:00 25.8 C 63.2500 % 18.28 C
1573 20-07-2019 12:00:00 27.775 C 51.4167 % 16.84 C
1574 20-07-2019 13:00:00 28.175 C 50.5000 % 16.92 C
1575 20-07-2019 14:00:00 30.04167 C 45.4167 % 16.95 C
Sensor: Nr:Datum:Temp:Feuchte:Taupunkt:
Aussen-T/F 1576 20-07-2019 15:00:00 30.8 C 43.7500 % 17.04 C
1577 20-07-2019 16:00:00 28.94167 C 64.4167 % 21.55 C
1578 20-07-2019 17:00:00 28.35 C 60.9167 % 20.08 C
1579 20-07-2019 18:00:00 28.925 C 49.3333 % 17.24 C
1580 20-07-2019 19:00:00 27.50833 C 53.5833 % 17.25 C
1581 20-07-2019 20:00:00 23.425 C 69.5833 % 17.55 C
1582 20-07-2019 21:00:00 21.725 C 76.0833 % 17.33 C
1583 20-07-2019 22:00:00 20.56667 C 80.0833 % 17.01 C
1584 20-07-2019 23:00:00 19.75 C 83.5833 % 16.89 C
1585 21-07-2019 00:00:00 19.08333 C 85.6667 % 16.63 C
1586 21-07-2019 01:00:00 18.58333 C 87.9167 % 16.54 C
1587 21-07-2019 02:00:00 18.875 C 87.7500 % 16.8 C
1588 21-07-2019 03:00:00 18.65 C 88.6667 % 16.74 C
1589 21-07-2019 04:00:00 17.95 C 89.3333 % 16.17 C
1590 21-07-2019 05:00:00 17.46667 C 91.1667 % 16.01 C
1591 21-07-2019 06:00:00 17.73333 C 91.6667 % 16.36 C
1592 21-07-2019 07:00:00 18.5 C 89.1667 % 16.68 C
1593 21-07-2019 08:00:00 19.34167 C 80.4167 % 15.89 C
1594 21-07-2019 09:00:00 20.30833 C 74.0000 % 15.52 C
1595 21-07-2019 10:00:00 21.85833 C 66.2500 % 15.28 C
1596 21-07-2019 11:00:00 23.79167 C 53.8333 % 13.88 C
1597 21-07-2019 12:00:00 24.96667 C 51.0833 % 14.16 C
1598 21-07-2019 13:00:00 24.95833 C 53.2500 % 14.79 C
1599 21-07-2019 14:00:00 26.01667 C 51.0833 % 15.12 C
1600 21-07-2019 15:00:00 26.84167 C 48.3333 % 15.02 C
Sensor: Nr:Datum:Temp:Feuchte:Taupunkt:
Aussen-T/F 1601 21-07-2019 16:00:00 27.76667 C 45.9167 % 15.06 C
1602 21-07-2019 17:00:00 27.275 C 47.5833 % 15.17 C
1603 21-07-2019 18:00:00 26.44167 C 49.2500 % 14.94 C
1604 21-07-2019 19:00:00 25.40833 C 52.1667 % 14.89 C
1605 21-07-2019 20:00:00 24.4 C 54.8333 % 14.73 C
1606 21-07-2019 21:00:00 22.64167 C 61.1667 % 14.78 C
1607 21-07-2019 22:00:00 19.85 C 71.5000 % 14.55 C
1608 21-07-2019 23:00:00 18.35 C 78.1667 % 14.48 C
1609 22-07-2019 00:00:00 17.075 C 81.0833 % 13.81 C
1610 22-07-2019 01:00:00 16.15833 C 84.1667 % 13.48 C
1611 22-07-2019 02:00:00 15.64167 C 87.4167 % 13.56 C
1612 22-07-2019 03:00:00 15.33333 C 88.3333 % 13.42 C
1613 22-07-2019 04:00:00 14.74167 C 89.5000 % 13.03 C
1614 22-07-2019 05:00:00 14.3 C 90.9167 % 12.84 C
1615 22-07-2019 06:00:00 14.175 C 91.8333 % 12.87 C
1616 22-07-2019 07:00:00 14.725 C 92.7500 % 13.56 C
1617 22-07-2019 08:00:00 16.28333 C 89.2500 % 14.51 C
1618 22-07-2019 09:00:00 18.20833 C 83.9167 % 15.45 C
1619 22-07-2019 10:00:00 20.80833 C 74.2500 % 16.06 C
1620 22-07-2019 11:00:00 24.00833 C 58.0000 % 15.24 C
1621 22-07-2019 12:00:00 25.55833 C 52.5833 % 15.15 C
1622 22-07-2019 13:00:00 26.41667 C 50.1667 % 15.21 C
1623 22-07-2019 14:00:00 27.775 C 45.7500 % 15.01 C
1624 22-07-2019 15:00:00 29.05 C 43.0833 % 15.23 C
1625 22-07-2019 16:00:00 30.80833 C 38.7500 % 15.15 C
Sensor: Nr:Datum:Temp:Feuchte:Taupunkt:
Aussen-T/F 1626 22-07-2019 17:00:00 31.51667 C 36.8333 % 14.99 C
1627 22-07-2019 18:00:00 32.31667 C 35.3333 % 15.04 C
1628 22-07-2019 19:00:00 31.475 C 36.3333 % 14.74 C
1629 22-07-2019 20:00:00 29.425 C 42.9167 % 15.51 C
1630 22-07-2019 21:00:00 25.59167 C 56.5000 % 16.3 C
1631 22-07-2019 22:00:00 22.85 C 63.6667 % 15.6 C
1632 22-07-2019 23:00:00 20.925 C 71.0000 % 15.47 C
1633 23-07-2019 00:00:00 19.4 C 76.2500 % 15.11 C
1634 23-07-2019 01:00:00 18.375 C 79.8333 % 14.83 C
1635 23-07-2019 02:00:00 17.55833 C 82.5000 % 14.55 C
1636 23-07-2019 03:00:00 16.84167 C 85.0833 % 14.32 C
1637 23-07-2019 04:00:00 16.29167 C 87.4167 % 14.2 C
1638 23-07-2019 05:00:00 15.825 C 89.0833 % 14.03 C
1639 23-07-2019 06:00:00 15.65833 C 90.8333 % 14.17 C
1640 23-07-2019 07:00:00 16.10833 C 91.0000 % 14.64 C
1641 23-07-2019 08:00:00 16.83333 C 90.5833 % 15.28 C
1642 23-07-2019 09:00:00 18.70833 C 87.0833 % 16.52 C
1643 23-07-2019 10:00:00 22.425 C 75.0000 % 17.77 C
1644 23-07-2019 11:00:00 27.35 C 53.3333 % 17.03 C
1645 23-07-2019 12:00:00 29.59167 C 44.0000 % 16.05 C
1646 23-07-2019 13:00:00 30.78333 C 39.9167 % 15.59 C
1647 23-07-2019 14:00:00 32.11667 C 37.1667 % 15.66 C
1648 23-07-2019 15:00:00 33.90833 C 35.0833 % 16.33 C
1649 23-07-2019 16:00:00 35.8 C 30.9167 % 15.99 C
1650 23-07-2019 17:00:00 36.38333 C 28.6667 % 15.31 C
Sensor: Nr:Datum:Temp:Feuchte:Taupunkt:
Aussen-T/F 1651 23-07-2019 18:00:00 36.76667 C 28.4167 % 15.5 C
1652 23-07-2019 19:00:00 35.64167 C 30.8333 % 15.81 C
1653 23-07-2019 20:00:00 32.725 C 40.6667 % 17.61 C
1654 23-07-2019 21:00:00 28.00833 C 50.3333 % 16.72 C
1655 23-07-2019 22:00:00 25.2 C 57.8333 % 16.3 C
1656 23-07-2019 23:00:00 22.93333 C 66.0000 % 16.24 C
1657 24-07-2019 00:00:00 21.44167 C 71.5000 % 16.07 C
1658 24-07-2019 01:00:00 20.31667 C 76.4167 % 16.03 C
1659 24-07-2019 02:00:00 19.30833 C 79.0000 % 15.58 C
1660 24-07-2019 03:00:00 18.63333 C 81.7500 % 15.45 C
1661 24-07-2019 04:00:00 17.76667 C 84.5833 % 15.14 C
1662 24-07-2019 05:00:00 17.23333 C 87.0833 % 15.07 C
1663 24-07-2019 06:00:00 17.075 C 88.2500 % 15.12 C
1664 24-07-2019 07:00:00 17.26667 C 90.0000 % 15.61 C
1665 24-07-2019 08:00:00 18.325 C 88.8333 % 16.45 C
1666 24-07-2019 09:00:00 20.23333 C 85.3333 % 17.69 C
1667 24-07-2019 10:00:00 23.75 C 72.4167 % 18.49 C
1668 24-07-2019 11:00:00 27.43333 C 59.5000 % 18.84 C
1669 24-07-2019 12:00:00 32.04167 C 41.6667 % 17.39 C
1670 24-07-2019 13:00:00 34.175 C 29.0833 % 13.64 C
1671 24-07-2019 14:00:00 35.31667 C 26.8333 % 13.38 C
1672 24-07-2019 15:00:00 36.975 C 26.0000 % 14.29 C
1673 24-07-2019 16:00:00 39.59167 C 23.0833 % 14.64 C
1674 24-07-2019 17:00:00 39.60833 C 22.9167 % 14.54 C
1675 24-07-2019 18:00:00 39.31667 C 22.6667 % 14.13 C
Sensor: Nr:Datum:Temp:Feuchte:Taupunkt:
Aussen-T/F 1676 24-07-2019 19:00:00 38.49167 C 27.5833 % 16.49 C
1677 24-07-2019 20:00:00 33.13333 C 40.0000 % 17.71 C
1678 24-07-2019 21:00:00 28.825 C 48.8333 % 16.99 C
1679 24-07-2019 22:00:00 27.375 C 52.0000 % 16.65 C
1680 24-07-2019 23:00:00 25.58333 C 58.3333 % 16.8 C
1681 25-07-2019 00:00:00 23.68333 C 63.0833 % 16.24 C
1682 25-07-2019 01:00:00 22.53333 C 66.5833 % 16 C
1683 25-07-2019 02:00:00 21.6 C 70.5000 % 16.01 C
1684 25-07-2019 03:00:00 20.89167 C 73.9167 % 16.07 C
1685 25-07-2019 04:00:00 20.075 C 77.7500 % 16.07 C
1686 25-07-2019 05:00:00 19.35833 C 80.0000 % 15.82 C
1687 25-07-2019 06:00:00 19.19167 C 82.2500 % 16.09 C
1688 25-07-2019 07:00:00 19.55833 C 83.8333 % 16.75 C
1689 25-07-2019 08:00:00 20.73333 C 82.7500 % 17.69 C
1690 25-07-2019 09:00:00 22.75833 C 76.9167 % 18.5 C
1691 25-07-2019 10:00:00 25.84167 C 66.6667 % 19.16 C
1692 25-07-2019 11:00:00 29.93333 C 53.3333 % 19.41 C
1693 25-07-2019 12:00:00 34.525 C 35.4167 % 17.02 C
1694 25-07-2019 13:00:00 36.46667 C 31.0000 % 16.6 C
1695 25-07-2019 14:00:00 37.425 C 28.8333 % 16.28 C
1696 25-07-2019 15:00:00 38.79167 C 26.3333 % 16.02 C
1697 25-07-2019 16:00:00 40.15 C 23.6667 % 15.49 C
1698 25-07-2019 17:00:00 39.80833 C 22.5833 % 14.48 C
1699 25-07-2019 18:00:00 39.09167 C 23.5000 % 14.5 C
1700 25-07-2019 19:00:00 36.66667 C 33.4167 % 17.96 C
Sensor: Nr:Datum:Temp:Feuchte:Taupunkt:
Aussen-T/F 1701 25-07-2019 20:00:00 32.81667 C 41.8333 % 18.14 C
1702 25-07-2019 21:00:00 30.34167 C 44.6667 % 16.96 C
1703 25-07-2019 22:00:00 28.75833 C 47.2500 % 16.41 C
1704 25-07-2019 23:00:00 27.56667 C 49.6667 % 16.1 C
1705 26-07-2019 00:00:00 26.19167 C 53.4167 % 15.98 C
1706 26-07-2019 01:00:00 25 C 57.0833 % 15.91 C
1707 26-07-2019 02:00:00 22.51667 C 67.0000 % 16.08 C
1708 26-07-2019 03:00:00 20.99167 C 71.6667 % 15.68 C
1709 26-07-2019 04:00:00 20.125 C 76.5833 % 15.88 C
1710 26-07-2019 05:00:00 19.29167 C 79.0000 % 15.56 C
1711 26-07-2019 06:00:00 18.95833 C 80.3333 % 15.5 C
1712 26-07-2019 07:00:00 19.61667 C 82.5000 % 16.56 C
1713 26-07-2019 08:00:00 21.10833 C 80.0000 % 17.52 C
1714 26-07-2019 09:00:00 23.50833 C 69.2500 % 17.55 C
1715 26-07-2019 10:00:00 28.225 C 49.5000 % 16.65 C
1716 26-07-2019 11:00:00 32.05 C 38.8333 % 16.28 C
1717 26-07-2019 12:00:00 34.35 C 34.5000 % 16.45 C
1718 26-07-2019 13:00:00 36.00833 C 30.9167 % 16.16 C
1719 26-07-2019 14:00:00 37.35833 C 26.7500 % 15.06 C
1720 26-07-2019 15:00:00 37.1 C 28.3333 % 15.73 C
1721 26-07-2019 16:00:00 35.28333 C 34.0000 % 17.03 C
1722 26-07-2019 17:00:00 32.5 C 42.4167 % 18.08 C
1723 26-07-2019 18:00:00 30.44167 C 45.5000 % 17.34 C
1724 26-07-2019 19:00:00 28.825 C 52.1667 % 18.04 C
1725 26-07-2019 20:00:00 27.525 C 57.7500 % 18.45 C
Sensor: Nr:Datum:Temp:Feuchte:Taupunkt:
Aussen-T/F 1726 26-07-2019 21:00:00 26.33333 C 59.3333 % 17.77 C
1727 26-07-2019 22:00:00 25.5 C 62.0833 % 17.7 C
1728 26-07-2019 23:00:00 24.35833 C 66.7500 % 17.78 C
1729 27-07-2019 00:00:00 23.15 C 70.2500 % 17.43 C
1730 27-07-2019 01:00:00 22.63333 C 73.2500 % 17.6 C
1731 27-07-2019 02:00:00 22.33333 C 75.1667 % 17.72 C
1732 27-07-2019 03:00:00 22.59167 C 74.7500 % 17.88 C
1733 27-07-2019 04:00:00 20.9 C 86.4167 % 18.55 C
1734 27-07-2019 05:00:00 20.275 C 88.7500 % 18.36 C
1735 27-07-2019 06:00:00 20.525 C 88.5833 % 18.57 C
1736 27-07-2019 07:00:00 21.25 C 88.1667 % 19.21 C
1737 27-07-2019 08:00:00 22.575 C 81.4167 % 19.23 C
1738 27-07-2019 09:00:00 24.725 C 73.5000 % 19.67 C
1739 27-07-2019 10:00:00 24.64167 C 81.6667 % 21.29 C
1740 27-07-2019 11:00:00 23.94167 C 86.5833 % 21.56 C
1741 27-07-2019 12:00:00 23.75 C 83.5000 % 20.79 C
1742 27-07-2019 13:00:00 26 C 73.8333 % 20.97 C
1743 27-07-2019 14:00:00 25.725 C 71.0833 % 20.09 C
1744 27-07-2019 15:00:00 25.04167 C 74.0833 % 20.1 C
1745 27-07-2019 16:00:00 25.96667 C 68.5000 % 19.72 C
1746 27-07-2019 17:00:00 24.49167 C 75.9167 % 19.96 C
1747 27-07-2019 18:00:00 24.90833 C 75.7500 % 20.33 C
1748 27-07-2019 19:00:00 23.84167 C 80.7500 % 20.33 C
1749 27-07-2019 20:00:00 22.88333 C 84.9167 % 20.21 C
1750 27-07-2019 21:00:00 22.075 C 85.6667 % 19.56 C
Sensor: Nr:Datum:Temp:Feuchte:Taupunkt:
Aussen-T/F 1751 27-07-2019 22:00:00 21.45 C 87.1667 % 19.23 C
1752 27-07-2019 23:00:00 21.14167 C 88.7500 % 19.21 C
1753 28-07-2019 00:00:00 20.83333 C 89.9167 % 19.12 C
1754 28-07-2019 01:00:00 20.70833 C 90.0000 % 19.01 C
1755 28-07-2019 02:00:00 20.7 C 90.0000 % 19 C
1756 28-07-2019 03:00:00 20.68333 C 90.0000 % 18.98 C
1757 28-07-2019 04:00:00 20.60833 C 90.8333 % 19.06 C
1758 28-07-2019 05:00:00 20.55 C 91.0000 % 19.03 C
1759 28-07-2019 06:00:00 20.54167 C 91.0000 % 19.02 C
1760 28-07-2019 07:00:00 20.69167 C 90.0000 % 18.99 C
1761 28-07-2019 08:00:00 20.71667 C 89.0833 % 18.85 C
1762 28-07-2019 09:00:00 20.425 C 90.3333 % 18.79 C
1763 28-07-2019 10:00:00 20.025 C 91.8333 % 18.66 C
1764 28-07-2019 11:00:00 20.08333 C 91.8333 % 18.71 C
1765 28-07-2019 12:00:00 20.50833 C 87.8333 % 18.42 C
1766 28-07-2019 13:00:00 20.30833 C 87.3333 % 18.13 C
1767 28-07-2019 14:00:00 19.98333 C 89.2500 % 18.16 C
1768 28-07-2019 15:00:00 19.90833 C 88.1667 % 17.89 C
1769 28-07-2019 16:00:00 19.81667 C 87.6667 % 17.71 C
1770 28-07-2019 17:00:00 19.45833 C 89.8333 % 17.75 C
1771 28-07-2019 18:00:00 19.175 C 90.4167 % 17.57 C
1772 28-07-2019 19:00:00 18.875 C 91.5833 % 17.47 C
1773 28-07-2019 20:00:00 18.5 C 92.7500 % 17.3 C
1774 28-07-2019 21:00:00 18.175 C 93.8333 % 17.17 C
1775 28-07-2019 22:00:00 17.90833 C 94.7500 % 17.05 C
Sensor: Nr:Datum:Temp:Feuchte:Taupunkt:
Aussen-T/F 1776 28-07-2019 23:00:00 17.6 C 95.0000 % 16.79 C
1777 29-07-2019 00:00:00 17.325 C 95.0000 % 16.52 C
1778 29-07-2019 01:00:00 17.10833 C 95.0000 % 16.3 C
1779 29-07-2019 02:00:00 16.975 C 95.7500 % 16.29 C
1780 29-07-2019 03:00:00 16.84167 C 96.0000 % 16.2 C
1781 29-07-2019 04:00:00 16.80833 C 96.0000 % 16.17 C
1782 29-07-2019 05:00:00 16.74167 C 96.0000 % 16.1 C
1783 29-07-2019 06:00:00 16.725 C 96.0000 % 16.08 C
1784 29-07-2019 07:00:00 16.99167 C 95.7500 % 16.31 C
1785 29-07-2019 08:00:00 17.46667 C 92.5833 % 16.25 C
1786 29-07-2019 09:00:00 18.49167 C 86.3333 % 16.17 C
1787 29-07-2019 10:00:00 19.39167 C 79.3333 % 15.72 C
1788 29-07-2019 11:00:00 20.475 C 73.7500 % 15.63 C
1789 29-07-2019 12:00:00 21.95 C 66.4167 % 15.41 C
1790 29-07-2019 13:00:00 23.25 C 62.0000 % 15.56 C
1791 29-07-2019 14:00:00 24.41667 C 57.5000 % 15.48 C
1792 29-07-2019 15:00:00 25.83333 C 51.4167 % 15.05 C
1793 29-07-2019 16:00:00 27.6 C 45.7500 % 14.85 C
1794 29-07-2019 17:00:00 28.23333 C 43.2500 % 14.56 C
1795 29-07-2019 18:00:00 27.70833 C 43.5000 % 14.17 C
1796 29-07-2019 19:00:00 28.1 C 43.3333 % 14.46 C
1797 29-07-2019 20:00:00 26.33333 C 49.1667 % 14.82 C
1798 29-07-2019 21:00:00 23.05833 C 61.6667 % 15.3 C
1799 29-07-2019 22:00:00 20.75833 C 69.6667 % 15.02 C
1800 29-07-2019 23:00:00 19.34167 C 75.5833 % 14.92 C
Sensor: Nr:Datum:Temp:Feuchte:Taupunkt:
Aussen-T/F 1801 30-07-2019 00:00:00 17.95 C 81.0833 % 14.66 C
1802 30-07-2019 01:00:00 17.425 C 83.5000 % 14.6 C
1803 30-07-2019 02:00:00 16.6 C 85.5000 % 14.16 C
1804 30-07-2019 03:00:00 15.875 C 88.1667 % 13.92 C
1805 30-07-2019 04:00:00 15.4 C 90.0833 % 13.78 C
1806 30-07-2019 05:00:00 15.03333 C 91.5000 % 13.66 C
1807 30-07-2019 06:00:00 14.725 C 92.8333 % 13.58 C
1808 30-07-2019 07:00:00 14.93333 C 93.8333 % 13.95 C
1809 30-07-2019 08:00:00 15.88333 C 93.9167 % 14.91 C
1810 30-07-2019 09:00:00 17.4 C 91.8333 % 16.06 C
1811 30-07-2019 10:00:00 20.275 C 82.2500 % 17.15 C
1812 30-07-2019 11:00:00 24.96667 C 57.9167 % 16.11 C
1813 30-07-2019 12:00:00 27.025 C 45.5000 % 14.25 C
1814 30-07-2019 13:00:00 28.24167 C 39.2500 % 13.07 C
1815 30-07-2019 14:00:00 29.49167 C 37.6667 % 13.55 C
1816 30-07-2019 15:00:00 30.69167 C 36.0833 % 13.94 C
1817 30-07-2019 16:00:00 31.20833 C 34.2500 % 13.59 C
1818 30-07-2019 17:00:00 29.30833 C 37.8333 % 13.45 C
1819 30-07-2019 18:00:00 26.625 C 40.7500 % 12.2 C
1820 30-07-2019 19:00:00 24.55833 C 51.0833 % 13.78 C
1821 30-07-2019 20:00:00 24.09167 C 55.1667 % 14.54 C
1822 30-07-2019 21:00:00 23.675 C 56.7500 % 14.59 C
1823 30-07-2019 22:00:00 22.20833 C 62.7500 % 14.77 C
1824 30-07-2019 23:00:00 21.175 C 68.0000 % 15.04 C
1825 31-07-2019 00:00:00 20.55 C 69.8333 % 14.85 C
Sensor: Nr:Datum:Temp:Feuchte:Taupunkt:
Aussen-T/F 1826 31-07-2019 01:00:00 20.325 C 71.0000 % 14.9 C
1827 31-07-2019 02:00:00 19.70833 C 71.6667 % 14.45 C
1828 31-07-2019 03:00:00 18.63333 C 75.0833 % 14.13 C
1829 31-07-2019 04:00:00 18.575 C 77.0000 % 14.47 C
1830 31-07-2019 05:00:00 17.83333 C 78.0000 % 13.95 C
1831 31-07-2019 06:00:00 17.64167 C 78.4167 % 13.84 C
1832 31-07-2019 07:00:00 17.375 C 79.9167 % 13.88 C
1833 31-07-2019 08:00:00 18.44167 C 75.4167 % 14.02 C
1834 31-07-2019 09:00:00 20.01667 C 67.6667 % 13.86 C
1835 31-07-2019 10:00:00 21.35833 C 58.7500 % 12.96 C
1836 31-07-2019 11:00:00 21.60833 C 55.2500 % 12.25 C
1837 31-07-2019 12:00:00 22.66667 C 50.8333 % 11.97 C
1838 31-07-2019 13:00:00 23.69167 C 47.0000 % 11.72 C
1839 31-07-2019 14:00:00 24.76667 C 42.4167 % 11.14 C
1840 31-07-2019 15:00:00 25.55 C 40.0833 % 10.99 C
1841 31-07-2019 16:00:00 24.95833 C 42.3333 % 11.28 C
1842 31-07-2019 17:00:00 25.25 C 42.9167 % 11.75 C
1843 31-07-2019 18:00:00 23.875 C 47.0833 % 11.91 C
1844 31-07-2019 19:00:00 23.49167 C 48.5000 % 12.01 C
1845 31-07-2019 20:00:00 22.09167 C 55.7500 % 12.84 C
1846 31-07-2019 21:00:00 19.925 C 59.6667 % 11.85 C
1847 31-07-2019 22:00:00 18.68333 C 61.0000 % 11.02 C
1848 31-07-2019 23:00:00 18.45 C 63.0833 % 11.3 C
1849 01-08-2019 00:00:00 16.88333 C 70.2500 % 11.44 C
1850 01-08-2019 01:00:00 15.525 C 75.0000 % 11.12 C
Sensor: Nr:Datum:Temp:Feuchte:Taupunkt:
Aussen-T/F 1851 01-08-2019 02:00:00 14.73333 C 78.9167 % 11.12 C
1852 01-08-2019 03:00:00 14.15833 C 81.0000 % 10.95 C
1853 01-08-2019 04:00:00 12.95833 C 84.9167 % 10.48 C
1854 01-08-2019 05:00:00 12.625 C 86.8333 % 10.49 C
1855 01-08-2019 06:00:00 12.125 C 88.5000 % 10.28 C
1856 01-08-2019 07:00:00 12.55833 C 89.1667 % 10.82 C
1857 01-08-2019 08:00:00 15.175 C 81.5000 % 12.03 C
1858 01-08-2019 09:00:00 17.56667 C 73.5833 % 12.8 C
1859 01-08-2019 10:00:00 20.3 C 62.4167 % 12.89 C
1860 01-08-2019 11:00:00 21.775 C 55.7500 % 12.55 C
1861 01-08-2019 12:00:00 22.45 C 53.5000 % 12.54 C
1862 01-08-2019 13:00:00 23.16667 C 53.0000 % 13.06 C
1863 01-08-2019 14:00:00 24.15 C 49.4167 % 12.9 C
1864 01-08-2019 15:00:00 24.575 C 48.9167 % 13.13 C
1865 01-08-2019 16:00:00 24.4 C 50.0000 % 13.31 C
1866 01-08-2019 17:00:00 25.13333 C 47.6667 % 13.25 C
1867 01-08-2019 18:00:00 26.35 C 44.7500 % 13.38 C
1868 01-08-2019 19:00:00 26.26667 C 45.1667 % 13.45 C
1869 01-08-2019 20:00:00 24.10833 C 53.8333 % 14.17 C
1870 01-08-2019 21:00:00 21.15 C 62.6667 % 13.75 C
1871 01-08-2019 22:00:00 19.76667 C 67.6667 % 13.62 C
1872 01-08-2019 23:00:00 19.24167 C 69.5833 % 13.55 C
1873 02-08-2019 00:00:00 18.81667 C 73.2500 % 13.93 C
1874 02-08-2019 01:00:00 18.34167 C 75.6667 % 13.97 C
1875 02-08-2019 02:00:00 17.86667 C 76.8333 % 13.75 C
Sensor: Nr:Datum:Temp:Feuchte:Taupunkt:
Aussen-T/F 1876 02-08-2019 03:00:00 16.94167 C 79.6667 % 13.41 C
1877 02-08-2019 04:00:00 16.31667 C 82.5000 % 13.33 C
1878 02-08-2019 05:00:00 16.2 C 83.6667 % 13.43 C
1879 02-08-2019 06:00:00 16.25 C 85.0000 % 13.73 C
1880 02-08-2019 07:00:00 16.925 C 84.5000 % 14.3 C
1881 02-08-2019 08:00:00 17.93333 C 82.3333 % 14.88 C
1882 02-08-2019 09:00:00 19.35 C 77.9167 % 15.4 C
1883 02-08-2019 10:00:00 20.71667 C 72.1667 % 15.52 C
1884 02-08-2019 11:00:00 22.16667 C 64.8333 % 15.24 C
1885 02-08-2019 12:00:00 21.275 C 75.5000 % 16.77 C
1886 02-08-2019 13:00:00 21.125 C 71.2500 % 15.72 C
1887 02-08-2019 14:00:00 23.16667 C 61.7500 % 15.42 C
1888 02-08-2019 15:00:00 24.58333 C 56.3333 % 15.32 C
1889 02-08-2019 16:00:00 25.59167 C 51.0833 % 14.73 C
1890 02-08-2019 17:00:00 26.725 C 46.0000 % 14.15 C
1891 02-08-2019 18:00:00 25.00833 C 53.4167 % 14.89 C
1892 02-08-2019 19:00:00 23.7 C 54.8333 % 14.08 C
1893 02-08-2019 20:00:00 22.45833 C 60.4167 % 14.42 C
1894 02-08-2019 21:00:00 21.275 C 63.5833 % 14.09 C
1895 02-08-2019 22:00:00 20.95 C 65.3333 % 14.2 C
1896 02-08-2019 23:00:00 18.975 C 78.8333 % 15.22 C
1897 03-08-2019 00:00:00 17.75833 C 84.3333 % 15.08 C
1898 03-08-2019 01:00:00 18.28333 C 82.5000 % 15.25 C
1899 03-08-2019 02:00:00 18.24167 C 84.4167 % 15.57 C
1900 03-08-2019 03:00:00 18.2 C 85.6667 % 15.76 C
Sensor: Nr:Datum:Temp:Feuchte:Taupunkt:
Aussen-T/F 1901 03-08-2019 04:00:00 18.15 C 86.9167 % 15.94 C
1902 03-08-2019 05:00:00 18.14167 C 87.0000 % 15.94 C
1903 03-08-2019 06:00:00 17.89167 C 87.2500 % 15.74 C
1904 03-08-2019 07:00:00 17.84167 C 85.6667 % 15.41 C
1905 03-08-2019 08:00:00 17.95 C 84.5000 % 15.3 C
1906 03-08-2019 09:00:00 18.6 C 79.2500 % 14.94 C
1907 03-08-2019 10:00:00 19.61667 C 75.5000 % 15.17 C
1908 03-08-2019 11:00:00 20.35833 C 73.1667 % 15.39 C
1909 03-08-2019 12:00:00 21.55833 C 66.9167 % 15.15 C
1910 03-08-2019 13:00:00 22.05 C 66.3333 % 15.48 C
1911 03-08-2019 14:00:00 22.20833 C 65.8333 % 15.52 C
1912 03-08-2019 15:00:00 23.80833 C 58.0000 % 15.05 C
1913 03-08-2019 16:00:00 25.16667 C 53.1667 % 14.96 C
1914 03-08-2019 17:00:00 25.49167 C 51.0000 % 14.61 C
1915 03-08-2019 18:00:00 25.46667 C 51.0000 % 14.59 C
1916 03-08-2019 19:00:00 24.30833 C 54.5000 % 14.55 C
1917 03-08-2019 20:00:00 22.61667 C 59.8333 % 14.42 C
1918 03-08-2019 21:00:00 20.55833 C 65.7500 % 13.93 C
1919 03-08-2019 22:00:00 18.10833 C 74.1667 % 13.44 C
1920 03-08-2019 23:00:00 17.05 C 79.3333 % 13.45 C
1921 04-08-2019 00:00:00 16.225 C 81.8333 % 13.12 C
1922 04-08-2019 01:00:00 15.125 C 85.5000 % 12.71 C
1923 04-08-2019 02:00:00 14 C 88.7500 % 12.17 C
1924 04-08-2019 03:00:00 13.3 C 90.9167 % 11.85 C
1925 04-08-2019 04:00:00 12.88333 C 92.0833 % 11.63 C
Sensor: Nr:Datum:Temp:Feuchte:Taupunkt:
Aussen-T/F 1926 04-08-2019 05:00:00 12.49167 C 93.0000 % 11.39 C
1927 04-08-2019 06:00:00 12.34167 C 93.8333 % 11.38 C
1928 04-08-2019 07:00:00 12.725 C 94.4167 % 11.85 C
1929 04-08-2019 08:00:00 13.73333 C 95.0000 % 12.95 C
1930 04-08-2019 09:00:00 15.34167 C 93.0833 % 14.23 C
1931 04-08-2019 10:00:00 18.10833 C 83.3333 % 15.24 C
1932 04-08-2019 11:00:00 21.31667 C 67.5000 % 15.06 C
1933 04-08-2019 12:00:00 23.3 C 59.5000 % 14.97 C
1934 04-08-2019 13:00:00 24.75 C 53.6667 % 14.72 C
1935 04-08-2019 14:00:00 25.86667 C 48.5833 % 14.21 C
1936 04-08-2019 15:00:00 28.225 C 40.6667 % 13.6 C
1937 04-08-2019 16:00:00 30.03333 C 34.5000 % 12.68 C
1938 04-08-2019 17:00:00 30.95833 C 32.0833 % 12.38 C
1939 04-08-2019 18:00:00 30.79167 C 33.7500 % 13.01 C
1940 04-08-2019 19:00:00 28.75833 C 41.6667 % 14.45 C
1941 04-08-2019 20:00:00 25.78333 C 51.9167 % 15.16 C
1942 04-08-2019 21:00:00 22.51667 C 60.3333 % 14.45 C
1943 04-08-2019 22:00:00 21.95833 C 63.6667 % 14.76 C
1944 04-08-2019 23:00:00 22.39167 C 61.2500 % 14.57 C
1945 05-08-2019 00:00:00 22.875 C 57.8333 % 14.13 C
1946 05-08-2019 01:00:00 21.65833 C 62.4167 % 14.17 C
1947 05-08-2019 02:00:00 20.28333 C 66.8333 % 13.92 C
1948 05-08-2019 03:00:00 19.6 C 69.6667 % 13.91 C
1949 05-08-2019 04:00:00 19.31667 C 75.7500 % 14.93 C
1950 05-08-2019 05:00:00 19.325 C 78.0000 % 15.39 C
Sensor: Nr:Datum:Temp:Feuchte:Taupunkt:
Aussen-T/F 1951 05-08-2019 06:00:00 18.28333 C 87.3333 % 16.14 C
1952 05-08-2019 07:00:00 17.53333 C 92.3333 % 16.28 C
1953 05-08-2019 08:00:00 17.64167 C 94.5000 % 16.75 C
1954 05-08-2019 09:00:00 18.75 C 94.9167 % 17.92 C
1955 05-08-2019 10:00:00 20.08333 C 92.5833 % 18.84 C
1956 05-08-2019 11:00:00 21.99167 C 84.0833 % 19.18 C
1957 05-08-2019 12:00:00 24.25 C 68.7500 % 18.14 C
1958 05-08-2019 13:00:00 26 C 59.7500 % 17.57 C
1959 05-08-2019 14:00:00 27.11667 C 54.6667 % 17.2 C
1960 05-08-2019 15:00:00 28.375 C 46.5000 % 15.81 C
1961 05-08-2019 16:00:00 28.875 C 41.3333 % 14.43 C
1962 05-08-2019 17:00:00 28.225 C 42.0833 % 14.13 C
1963 05-08-2019 18:00:00 27.7 C 42.1667 % 13.68 C
1964 05-08-2019 19:00:00 26.7 C 46.4167 % 14.26 C
1965 05-08-2019 20:00:00 25.1 C 53.5833 % 15.02 C
1966 05-08-2019 21:00:00 22.075 C 61.1667 % 14.25 C
1967 05-08-2019 22:00:00 20.53333 C 69.3333 % 14.73 C
1968 05-08-2019 23:00:00 19.28333 C 74.0000 % 14.54 C
1969 06-08-2019 00:00:00 18.00833 C 78.2500 % 14.17 C
1970 06-08-2019 01:00:00 17.10833 C 81.4167 % 13.9 C
1971 06-08-2019 02:00:00 17.00833 C 82.9167 % 14.09 C
1972 06-08-2019 03:00:00 17.45833 C 83.0833 % 14.56 C
1973 06-08-2019 04:00:00 17.20833 C 83.8333 % 14.45 C
1974 06-08-2019 05:00:00 16.60833 C 85.6667 % 14.2 C
1975 06-08-2019 06:00:00 16.66667 C 86.5833 % 14.42 C
Sensor: Nr:Datum:Temp:Feuchte:Taupunkt:
Aussen-T/F 1976 06-08-2019 07:00:00 17.83333 C 83.2500 % 14.95 C
1977 06-08-2019 08:00:00 18.675 C 81.0833 % 15.37 C
1978 06-08-2019 09:00:00 20.1 C 76.5000 % 15.84 C
1979 06-08-2019 10:00:00 19.91667 C 83.7500 % 17.09 C
1980 06-08-2019 11:00:00 19.65 C 89.1667 % 17.82 C
1981 06-08-2019 12:00:00 21.31667 C 82.2500 % 18.17 C
1982 06-08-2019 13:00:00 22.325 C 77.4167 % 18.18 C
1983 06-08-2019 14:00:00 23.61667 C 69.8333 % 17.79 C
1984 06-08-2019 15:00:00 24.725 C 64.7500 % 17.64 C
1985 06-08-2019 16:00:00 25.39167 C 61.9167 % 17.56 C
1986 06-08-2019 17:00:00 26.4 C 57.5000 % 17.33 C
1987 06-08-2019 18:00:00 25.20833 C 61.8333 % 17.37 C
1988 06-08-2019 19:00:00 22.54167 C 76.7500 % 18.25 C
1989 06-08-2019 20:00:00 19.05 C 90.4167 % 17.44 C
1990 06-08-2019 21:00:00 18.00833 C 93.1667 % 16.89 C
1991 06-08-2019 22:00:00 17.51667 C 94.0000 % 16.54 C
1992 06-08-2019 23:00:00 17.08333 C 94.9167 % 16.26 C
1993 07-08-2019 00:00:00 16.68333 C 95.0000 % 15.88 C
1994 07-08-2019 01:00:00 16.3 C 95.5000 % 15.58 C
1995 07-08-2019 02:00:00 16.45833 C 96.0000 % 15.82 C
1996 07-08-2019 03:00:00 16.58333 C 96.2500 % 15.98 C
1997 07-08-2019 04:00:00 16.63333 C 97.0000 % 16.15 C
1998 07-08-2019 05:00:00 16.66667 C 97.0000 % 16.19 C
1999 07-08-2019 06:00:00 16.875 C 97.0000 % 16.4 C
2000 07-08-2019 07:00:00 17.25 C 97.0000 % 16.77 C
Sensor: Nr:Datum:Temp:Feuchte:Taupunkt:
Aussen-T/F 2001 07-08-2019 08:00:00 17.75833 C 97.0000 % 17.28 C
2002 07-08-2019 09:00:00 18.25 C 97.0000 % 17.77 C
2003 07-08-2019 10:00:00 18.96667 C 96.4167 % 18.38 C
2004 07-08-2019 11:00:00 19.725 C 93.0833 % 18.57 C
2005 07-08-2019 12:00:00 20.83333 C 84.5000 % 18.12 C
2006 07-08-2019 13:00:00 21.85833 C 76.3333 % 17.51 C
2007 07-08-2019 14:00:00 22.525 C 75.3333 % 17.94 C
2008 07-08-2019 15:00:00 22.59167 C 72.9167 % 17.49 C
2009 07-08-2019 16:00:00 22.08333 C 72.8333 % 16.98 C
2010 07-08-2019 17:00:00 22.53333 C 71.2500 % 17.07 C
2011 07-08-2019 18:00:00 23.35833 C 68.4167 % 17.21 C
2012 07-08-2019 19:00:00 22.38333 C 73.7500 % 17.47 C
2013 07-08-2019 20:00:00 20.05833 C 83.5000 % 17.18 C
2014 07-08-2019 21:00:00 18.05 C 86.7500 % 15.81 C
2015 07-08-2019 22:00:00 16.74167 C 89.7500 % 15.05 C
2016 07-08-2019 23:00:00 16.64167 C 89.1667 % 14.85 C
2017 08-08-2019 00:00:00 15.76667 C 91.4167 % 14.37 C
2018 08-08-2019 01:00:00 16.35 C 92.0000 % 15.05 C
2019 08-08-2019 02:00:00 16.45 C 92.0000 % 15.15 C
2020 08-08-2019 03:00:00 16.44167 C 91.9167 % 15.12 C
2021 08-08-2019 04:00:00 16.06667 C 92.6667 % 14.88 C
2022 08-08-2019 05:00:00 15.31667 C 93.2500 % 14.23 C
2023 08-08-2019 06:00:00 15.7 C 94.0000 % 14.74 C
2024 08-08-2019 07:00:00 15.95 C 93.5833 % 14.92 C
2025 08-08-2019 08:00:00 17.05833 C 91.1667 % 15.61 C
Sensor: Nr:Datum:Temp:Feuchte:Taupunkt:
Aussen-T/F 2026 08-08-2019 09:00:00 18.55833 C 84.0833 % 15.82 C
2027 08-08-2019 10:00:00 20.05833 C 73.0000 % 15.07 C
2028 08-08-2019 11:00:00 21.74167 C 65.7500 % 15.05 C
2029 08-08-2019 12:00:00 22.99167 C 61.1667 % 15.11 C
2030 08-08-2019 13:00:00 24.025 C 57.4167 % 15.1 C
2031 08-08-2019 14:00:00 24.20833 C 57.3333 % 15.24 C
2032 08-08-2019 15:00:00 24.51667 C 57.1667 % 15.49 C
2033 08-08-2019 16:00:00 26.58333 C 51.4167 % 15.74 C
2034 08-08-2019 17:00:00 27.18333 C 48.1667 % 15.28 C
2035 08-08-2019 18:00:00 27.46667 C 47.3333 % 15.26 C
2036 08-08-2019 19:00:00 25.43333 C 62.0833 % 17.64 C
2037 08-08-2019 20:00:00 23.575 C 67.5833 % 17.23 C
2038 08-08-2019 21:00:00 20.625 C 76.4167 % 16.33 C
2039 08-08-2019 22:00:00 19.15833 C 83.1667 % 16.23 C
2040 08-08-2019 23:00:00 18.16667 C 87.5000 % 16.06 C
2041 09-08-2019 00:00:00 17.15833 C 89.4167 % 15.4 C
2042 09-08-2019 01:00:00 16.25833 C 91.2500 % 14.83 C
2043 09-08-2019 02:00:00 15.875 C 92.0000 % 14.58 C
2044 09-08-2019 03:00:00 15.21667 C 92.7500 % 14.05 C
2045 09-08-2019 04:00:00 14.725 C 93.6667 % 13.71 C
2046 09-08-2019 05:00:00 14.44167 C 94.0833 % 13.5 C
2047 09-08-2019 06:00:00 14.56667 C 95.0000 % 13.78 C
2048 09-08-2019 07:00:00 15.40833 C 95.3333 % 14.67 C
2049 09-08-2019 08:00:00 16.44167 C 93.1667 % 15.33 C
2050 09-08-2019 09:00:00 18.26667 C 87.8333 % 16.22 C
Sensor: Nr:Datum:Temp:Feuchte:Taupunkt:
Aussen-T/F 2051 09-08-2019 10:00:00 20.60833 C 80.7500 % 17.18 C
2052 09-08-2019 11:00:00 23.8 C 71.5833 % 18.35 C
2053 09-08-2019 12:00:00 25.26667 C 65.8333 % 18.42 C
2054 09-08-2019 13:00:00 25.275 C 66.4167 % 18.57 C
2055 09-08-2019 14:00:00 24.75 C 77.3333 % 20.51 C
2056 09-08-2019 15:00:00 24.43333 C 82.0833 % 21.17 C
2057 09-08-2019 16:00:00 27.25 C 69.9167 % 21.28 C
2058 09-08-2019 17:00:00 25.45 C 81.5000 % 22.05 C
2059 09-08-2019 18:00:00 22.78333 C 88.9167 % 20.86 C
2060 09-08-2019 19:00:00 21.5 C 93.0833 % 20.33 C
2061 09-08-2019 20:00:00 19.63333 C 94.0833 % 18.65 C
2062 09-08-2019 21:00:00 19.31667 C 95.5000 % 18.58 C
2063 09-08-2019 22:00:00 19.30833 C 96.0000 % 18.65 C
2064 09-08-2019 23:00:00 18.86667 C 96.0000 % 18.21 C
2065 10-08-2019 00:00:00 18.775 C 96.5833 % 18.22 C
2066 10-08-2019 01:00:00 18.73333 C 96.9167 % 18.23 C
2067 10-08-2019 02:00:00 18.50833 C 97.0000 % 18.02 C
2068 10-08-2019 03:00:00 18.29167 C 97.0000 % 17.81 C
2069 10-08-2019 04:00:00 18.11667 C 97.0000 % 17.63 C
2070 10-08-2019 05:00:00 17.53333 C 97.0000 % 17.05 C
2071 10-08-2019 06:00:00 17.45 C 97.0000 % 16.97 C
2072 10-08-2019 07:00:00 17.33333 C 97.0000 % 16.85 C
2073 10-08-2019 08:00:00 17.41667 C 95.0833 % 16.62 C
2074 10-08-2019 09:00:00 19.125 C 86.0000 % 16.73 C
2075 10-08-2019 10:00:00 20.36667 C 79.5000 % 16.7 C
Sensor: Nr:Datum:Temp:Feuchte:Taupunkt:
Aussen-T/F 2076 10-08-2019 11:00:00 21.43333 C 74.3333 % 16.68 C
2077 10-08-2019 12:00:00 22.38333 C 69.0000 % 16.42 C
2078 10-08-2019 13:00:00 23.26667 C 63.4167 % 15.93 C
2079 10-08-2019 14:00:00 23.83333 C 60.7500 % 15.8 C
2080 10-08-2019 15:00:00 24.99167 C 55.4167 % 15.44 C
2081 10-08-2019 16:00:00 25.24167 C 53.5000 % 15.13 C
2082 10-08-2019 17:00:00 26.29167 C 49.2500 % 14.81 C
2083 10-08-2019 18:00:00 25.99167 C 49.0833 % 14.48 C
2084 10-08-2019 19:00:00 25.00833 C 49.6667 % 13.76 C
2085 10-08-2019 20:00:00 22.63333 C 61.2500 % 14.79 C
2086 10-08-2019 21:00:00 19.41667 C 72.6667 % 14.38 C
2087 10-08-2019 22:00:00 17.71667 C 78.7500 % 13.98 C
2088 10-08-2019 23:00:00 16.45833 C 82.0000 % 13.38 C
2089 11-08-2019 00:00:00 15.75833 C 84.8333 % 13.21 C
2090 11-08-2019 01:00:00 15.375 C 87.3333 % 13.28 C
2091 11-08-2019 02:00:00 15.7 C 86.5000 % 13.45 C
2092 11-08-2019 03:00:00 15.20833 C 86.5000 % 12.97 C
2093 11-08-2019 04:00:00 14.43333 C 88.3333 % 12.53 C
2094 11-08-2019 05:00:00 13.58333 C 90.1667 % 12 C
2095 11-08-2019 06:00:00 13.40833 C 92.6667 % 12.25 C
2096 11-08-2019 07:00:00 14.04167 C 92.2500 % 12.8 C
2097 11-08-2019 08:00:00 14.9 C 91.3333 % 13.5 C
2098 11-08-2019 09:00:00 16.21667 C 87.0833 % 14.07 C
2099 11-08-2019 10:00:00 19.375 C 69.7500 % 13.71 C
2100 11-08-2019 11:00:00 21.26667 C 59.2500 % 13 C
Sensor: Nr:Datum:Temp:Feuchte:Taupunkt:
Aussen-T/F 2101 11-08-2019 12:00:00 22.09167 C 55.8333 % 12.86 C
2102 11-08-2019 13:00:00 22.775 C 51.0833 % 12.14 C
2103 11-08-2019 14:00:00 22.89167 C 52.5833 % 12.69 C
2104 11-08-2019 15:00:00 21.50833 C 61.3333 % 13.76 C
2105 11-08-2019 16:00:00 20.05 C 70.0000 % 14.41 C
2106 11-08-2019 17:00:00 17.18333 C 86.8333 % 14.97 C
2107 11-08-2019 18:00:00 16.475 C 90.4167 % 14.9 C
2108 11-08-2019 19:00:00 16.075 C 89.6667 % 14.38 C
2109 11-08-2019 20:00:00 15.775 C 91.0000 % 14.31 C
2110 11-08-2019 21:00:00 15.23333 C 91.7500 % 13.9 C
2111 11-08-2019 22:00:00 14.3 C 91.8333 % 12.99 C
2112 11-08-2019 23:00:00 14.24167 C 93.3333 % 13.18 C
2113 12-08-2019 00:00:00 14.85833 C 92.5833 % 13.67 C
2114 12-08-2019 01:00:00 14.325 C 92.0833 % 13.06 C
2115 12-08-2019 02:00:00 13.66667 C 93.4167 % 12.62 C
2116 12-08-2019 03:00:00 13.125 C 94.0000 % 12.18 C
2117 12-08-2019 04:00:00 12.89167 C 95.0000 % 12.11 C
2118 12-08-2019 05:00:00 12.675 C 95.0000 % 11.9 C
2119 12-08-2019 06:00:00 12.69167 C 95.5833 % 12 C
2120 12-08-2019 07:00:00 13.05833 C 96.0000 % 12.44 C
2121 12-08-2019 08:00:00 13.5 C 96.0000 % 12.87 C
2122 12-08-2019 09:00:00 15.05 C 92.5833 % 13.86 C
2123 12-08-2019 10:00:00 17.65 C 82.5000 % 14.63 C
2124 12-08-2019 11:00:00 20.08333 C 72.5833 % 15.01 C
2125 12-08-2019 12:00:00 21.275 C 65.6667 % 14.59 C
Sensor: Nr:Datum:Temp:Feuchte:Taupunkt:
Aussen-T/F 2126 12-08-2019 13:00:00 21.775 C 60.7500 % 13.86 C
2127 12-08-2019 14:00:00 22.55 C 60.2500 % 14.46 C
2128 12-08-2019 15:00:00 23.475 C 55.5833 % 14.08 C
2129 12-08-2019 16:00:00 22.54167 C 58.5000 % 14 C
2130 12-08-2019 17:00:00 17.89167 C 77.2500 % 13.85 C
2131 12-08-2019 18:00:00 15.925 C 90.0000 % 14.29 C
2132 12-08-2019 19:00:00 15.925 C 92.0000 % 14.63 C
2133 12-08-2019 20:00:00 15.54167 C 92.1667 % 14.28 C
2134 12-08-2019 21:00:00 15.19167 C 93.5833 % 14.16 C
2135 12-08-2019 22:00:00 14.975 C 94.0000 % 14.02 C
2136 12-08-2019 23:00:00 14.01667 C 92.6667 % 12.85 C
2137 13-08-2019 00:00:00 13.55833 C 94.2500 % 12.65 C
2138 13-08-2019 01:00:00 13.025 C 94.2500 % 12.12 C
2139 13-08-2019 02:00:00 12.83333 C 95.2500 % 12.09 C
2140 13-08-2019 03:00:00 12.9 C 95.5833 % 12.21 C
2141 13-08-2019 04:00:00 13.275 C 95.8333 % 12.62 C
2142 13-08-2019 05:00:00 13.18333 C 95.0000 % 12.4 C
2143 13-08-2019 06:00:00 12.75 C 95.1667 % 12 C
2144 13-08-2019 07:00:00 12.9 C 95.2500 % 12.16 C
2145 13-08-2019 08:00:00 13.39167 C 92.7500 % 12.24 C
2146 13-08-2019 09:00:00 14.85 C 86.8333 % 12.68 C
2147 13-08-2019 10:00:00 16.225 C 74.6667 % 11.72 C
2148 13-08-2019 11:00:00 17.175 C 67.2500 % 11.06 C
2149 13-08-2019 12:00:00 18.13333 C 63.4167 % 11.08 C
2150 13-08-2019 13:00:00 19.025 C 55.6667 % 9.97 C
Sensor: Nr:Datum:Temp:Feuchte:Taupunkt:
Aussen-T/F 2151 13-08-2019 14:00:00 19.875 C 52.8333 % 9.97 C
2152 13-08-2019 15:00:00 21.275 C 50.3333 % 10.54 C
2153 13-08-2019 16:00:00 21.38333 C 50.9167 % 10.81 C
2154 13-08-2019 17:00:00 21.25833 C 50.5000 % 10.57 C
2155 13-08-2019 18:00:00 21.175 C 51.8333 % 10.89 C
2156 13-08-2019 19:00:00 18.53333 C 64.7500 % 11.78 C
2157 13-08-2019 20:00:00 14.91667 C 86.6667 % 12.71 C
2158 13-08-2019 21:00:00 13.99167 C 91.3333 % 12.6 C
2159 13-08-2019 22:00:00 13.63333 C 92.5833 % 12.45 C
2160 13-08-2019 23:00:00 13.36667 C 93.0000 % 12.26 C
2161 14-08-2019 00:00:00 13.05 C 93.0833 % 11.96 C
2162 14-08-2019 01:00:00 12.61667 C 93.1667 % 11.54 C
2163 14-08-2019 02:00:00 12.10833 C 93.1667 % 11.04 C
2164 14-08-2019 03:00:00 11.93333 C 94.0000 % 11 C
2165 14-08-2019 04:00:00 11.43333 C 94.0833 % 10.52 C
2166 14-08-2019 05:00:00 11.00833 C 95.0000 % 10.24 C
2167 14-08-2019 06:00:00 10.61667 C 95.1667 % 9.88 C
2168 14-08-2019 07:00:00 10.61667 C 96.0000 % 10.01 C
2169 14-08-2019 08:00:00 11.4 C 96.3333 % 10.84 C
2170 14-08-2019 09:00:00 13.28333 C 93.5000 % 12.26 C
2171 14-08-2019 10:00:00 14.26667 C 91.8333 % 12.96 C
2172 14-08-2019 11:00:00 15.66667 C 83.2500 % 12.84 C
2173 14-08-2019 12:00:00 18.1 C 62.7500 % 10.89 C
2174 14-08-2019 13:00:00 19.59167 C 55.0000 % 10.31 C
2175 14-08-2019 14:00:00 21.08333 C 50.1667 % 10.31 C
Sensor: Nr:Datum:Temp:Feuchte:Taupunkt:
Aussen-T/F 2176 14-08-2019 15:00:00 22.60833 C 49.2500 % 11.44 C
2177 14-08-2019 16:00:00 23.74167 C 46.2500 % 11.52 C
2178 14-08-2019 17:00:00 24.44167 C 44.7500 % 11.66 C
2179 14-08-2019 18:00:00 24 C 46.7500 % 11.92 C
2180 14-08-2019 19:00:00 22.31667 C 56.5000 % 13.25 C
2181 14-08-2019 20:00:00 19.675 C 67.5833 % 13.51 C
2182 14-08-2019 21:00:00 18.1 C 74.0833 % 13.41 C
2183 14-08-2019 22:00:00 17.63333 C 76.1667 % 13.39 C
2184 14-08-2019 23:00:00 17.4 C 76.5000 % 13.23 C
2185 15-08-2019 00:00:00 17.35833 C 76.5833 % 13.21 C
2186 15-08-2019 01:00:00 17.38333 C 77.5000 % 13.41 C
2187 15-08-2019 02:00:00 16.2 C 88.4167 % 14.28 C
2188 15-08-2019 03:00:00 15.275 C 92.4167 % 14.05 C
2189 15-08-2019 04:00:00 14.90833 C 93.6667 % 13.9 C
2190 15-08-2019 05:00:00 14.84167 C 94.1667 % 13.91 C
2191 15-08-2019 06:00:00 14.96667 C 94.8333 % 14.15 C
2192 15-08-2019 07:00:00 15.6 C 92.3333 % 14.36 C
2193 15-08-2019 08:00:00 17.59167 C 83.9167 % 14.84 C
2194 15-08-2019 09:00:00 18.48333 C 81.5000 % 15.26 C
2195 15-08-2019 10:00:00 19.14167 C 81.0000 % 15.8 C
2196 15-08-2019 11:00:00 19.28333 C 81.5833 % 16.05 C
2197 15-08-2019 12:00:00 19.90833 C 79.6667 % 16.29 C
2198 15-08-2019 13:00:00 18.94167 C 88.6667 % 17.03 C
2199 15-08-2019 14:00:00 19.73333 C 86.0000 % 17.32 C
2200 15-08-2019 15:00:00 20.79167 C 81.3333 % 17.48 C
Sensor: Nr:Datum:Temp:Feuchte:Taupunkt:
Aussen-T/F 2201 15-08-2019 16:00:00 19.325 C 89.5833 % 17.57 C
2202 15-08-2019 17:00:00 17.3 C 92.9167 % 16.14 C
2203 15-08-2019 18:00:00 16.975 C 94.1667 % 16.03 C
2204 15-08-2019 19:00:00 17.25 C 94.5833 % 16.37 C
2205 15-08-2019 20:00:00 17.09167 C 94.5833 % 16.22 C
2206 15-08-2019 21:00:00 16.40833 C 94.7500 % 15.56 C
2207 15-08-2019 22:00:00 15.93333 C 94.5833 % 15.06 C
2208 15-08-2019 23:00:00 15.54167 C 95.0000 % 14.74 C

Maximal/Minimal-Werte vom 16.05.2019 - 15.08.2019

Sensor Min Max Avg
Temp
(Aussen-T/F)
5.5 °C
16-05-2019  02:45:00
40.4 °C
25-07-2019  16:20:00
19.11 °C
Feuchte
(Aussen-T/F)
19 %
06-07-2019  15:50:00
98 %
14-06-2019  09:05:00
73.04 %
Taupunkt
(Aussen-T/F)
1.59 C
16-05-2019  00:00:00
22.48 C
26-06-2019  11:00:00
13.47 C

Die Daten stammen von einer Davis Vantage Pro 2 Wetter-Station und werden unter Linux mit der Software wview2wettercgi und aufbereitet. Alle Angaben erfolgen ohne Gewähr für ihre Vollständigkeit oder Richtigkeit.
Kontakt: Rainer Krienke krienke@uni-koblenz.de . Meine Webseiten an der Uni Koblenz oder privat.
Version: $Revision: 0.78 $